<?xml version="1.0" encoding="UTF-8" standalone="no" ?>
<gpx xmlns="http://www.topografix.com/GPX/1/1" xmlns:xsi="http://www.w3.org/2001/XMLSchema-instance" xsi:schemaLocation="http://www.topografix.com/GPX/1/1 http://www.topografix.com/GPX/1/1/gpx.xsd" version="1.1" creator="VisuGPX - https://www.visugpx.com">
  <metadata>
    <name>Boucle Seillons 25km</name>
    <desc><![CDATA[Parcours 25km facile et agréable, aucune difficulté technique
]]></desc>
  </metadata>
  <trk>
    <name><![CDATA[2020-01-18 08:41]]></name>
    <trkseg>
      <trkpt lat="43.50387" lon="5.88684">
        <ele>310.2</ele>
      </trkpt>
      <trkpt lat="43.50386" lon="5.88681">
        <ele>310.2</ele>
      </trkpt>
      <trkpt lat="43.50383" lon="5.88675">
        <ele>310</ele>
      </trkpt>
      <trkpt lat="43.50382" lon="5.88668">
        <ele>310</ele>
      </trkpt>
      <trkpt lat="43.50377" lon="5.88656">
        <ele>311.3</ele>
      </trkpt>
      <trkpt lat="43.5038" lon="5.88644">
        <ele>311.7</ele>
      </trkpt>
      <trkpt lat="43.50385" lon="5.88645">
        <ele>311.9</ele>
      </trkpt>
      <trkpt lat="43.5039" lon="5.88643">
        <ele>312.1</ele>
      </trkpt>
      <trkpt lat="43.50405" lon="5.88635">
        <ele>253.44</ele>
        <time>2020-01-18T07:45:47Z</time>
      </trkpt>
      <trkpt lat="43.50423" lon="5.88626">
        <ele>255.32</ele>
        <time>2020-01-18T07:45:55Z</time>
      </trkpt>
      <trkpt lat="43.5044" lon="5.88616">
        <ele>256.7</ele>
        <time>2020-01-18T07:46:02Z</time>
      </trkpt>
      <trkpt lat="43.50458" lon="5.88607">
        <ele>258.36</ele>
        <time>2020-01-18T07:46:09Z</time>
      </trkpt>
      <trkpt lat="43.50475" lon="5.88596">
        <ele>259.63</ele>
        <time>2020-01-18T07:46:16Z</time>
      </trkpt>
      <trkpt lat="43.50491" lon="5.88583">
        <ele>259.87</ele>
        <time>2020-01-18T07:46:23Z</time>
      </trkpt>
      <trkpt lat="43.50507" lon="5.88567">
        <ele>260.8</ele>
        <time>2020-01-18T07:46:30Z</time>
      </trkpt>
      <trkpt lat="43.50524" lon="5.88551">
        <ele>262.72</ele>
        <time>2020-01-18T07:46:38Z</time>
      </trkpt>
      <trkpt lat="43.5054" lon="5.88534">
        <ele>263.42</ele>
        <time>2020-01-18T07:46:45Z</time>
      </trkpt>
      <trkpt lat="43.50553" lon="5.88514">
        <ele>264.62</ele>
        <time>2020-01-18T07:46:52Z</time>
      </trkpt>
      <trkpt lat="43.50566" lon="5.88496">
        <ele>265.55</ele>
        <time>2020-01-18T07:46:59Z</time>
      </trkpt>
      <trkpt lat="43.5058" lon="5.88479">
        <ele>265.34</ele>
        <time>2020-01-18T07:47:06Z</time>
      </trkpt>
      <trkpt lat="43.50597" lon="5.88464">
        <ele>264.87</ele>
        <time>2020-01-18T07:47:13Z</time>
      </trkpt>
      <trkpt lat="43.50617" lon="5.88463">
        <ele>265.43</ele>
        <time>2020-01-18T07:47:22Z</time>
      </trkpt>
      <trkpt lat="43.50635" lon="5.88457">
        <ele>267.8</ele>
        <time>2020-01-18T07:47:31Z</time>
      </trkpt>
      <trkpt lat="43.50653" lon="5.88451">
        <ele>269.24</ele>
        <time>2020-01-18T07:47:39Z</time>
      </trkpt>
      <trkpt lat="43.50671" lon="5.88439">
        <ele>271.04</ele>
        <time>2020-01-18T07:47:46Z</time>
      </trkpt>
      <trkpt lat="43.50685" lon="5.88421">
        <ele>272.29</ele>
        <time>2020-01-18T07:47:52Z</time>
      </trkpt>
      <trkpt lat="43.50697" lon="5.88403">
        <ele>274.95</ele>
        <time>2020-01-18T07:47:59Z</time>
      </trkpt>
      <trkpt lat="43.50713" lon="5.88385">
        <ele>276.73</ele>
        <time>2020-01-18T07:48:06Z</time>
      </trkpt>
      <trkpt lat="43.50724" lon="5.88366">
        <ele>278.49</ele>
        <time>2020-01-18T07:48:13Z</time>
      </trkpt>
      <trkpt lat="43.50731" lon="5.88341">
        <ele>280.79</ele>
        <time>2020-01-18T07:48:21Z</time>
      </trkpt>
      <trkpt lat="43.50747" lon="5.88324">
        <ele>283.59</ele>
        <time>2020-01-18T07:48:29Z</time>
      </trkpt>
      <trkpt lat="43.50764" lon="5.88309">
        <ele>285.5</ele>
        <time>2020-01-18T07:48:37Z</time>
      </trkpt>
      <trkpt lat="43.50782" lon="5.88299">
        <ele>288.89</ele>
        <time>2020-01-18T07:48:47Z</time>
      </trkpt>
      <trkpt lat="43.50802" lon="5.88304">
        <ele>288.18</ele>
        <time>2020-01-18T07:48:55Z</time>
      </trkpt>
      <trkpt lat="43.50815" lon="5.88322">
        <ele>285.93</ele>
        <time>2020-01-18T07:48:59Z</time>
      </trkpt>
      <trkpt lat="43.50823" lon="5.88346">
        <ele>285.49</ele>
        <time>2020-01-18T07:49:05Z</time>
      </trkpt>
      <trkpt lat="43.50823" lon="5.88372">
        <ele>286.14</ele>
        <time>2020-01-18T07:49:13Z</time>
      </trkpt>
      <trkpt lat="43.50828" lon="5.88396">
        <ele>285.15</ele>
        <time>2020-01-18T07:49:22Z</time>
      </trkpt>
      <trkpt lat="43.50845" lon="5.88409">
        <ele>286.28</ele>
        <time>2020-01-18T07:49:34Z</time>
      </trkpt>
      <trkpt lat="43.50862" lon="5.88421">
        <ele>287.25</ele>
        <time>2020-01-18T07:49:43Z</time>
      </trkpt>
      <trkpt lat="43.50877" lon="5.88435">
        <ele>288.32</ele>
        <time>2020-01-18T07:49:51Z</time>
      </trkpt>
      <trkpt lat="43.50893" lon="5.88453">
        <ele>289.07</ele>
        <time>2020-01-18T07:49:59Z</time>
      </trkpt>
      <trkpt lat="43.50909" lon="5.88467">
        <ele>290.62</ele>
        <time>2020-01-18T07:50:09Z</time>
      </trkpt>
      <trkpt lat="43.50924" lon="5.88483">
        <ele>292.52</ele>
        <time>2020-01-18T07:50:18Z</time>
      </trkpt>
      <trkpt lat="43.50944" lon="5.88488">
        <ele>294.36</ele>
        <time>2020-01-18T07:50:28Z</time>
      </trkpt>
      <trkpt lat="43.50962" lon="5.88495">
        <ele>295.62</ele>
        <time>2020-01-18T07:50:35Z</time>
      </trkpt>
      <trkpt lat="43.5098" lon="5.88494">
        <ele>296.93</ele>
        <time>2020-01-18T07:50:43Z</time>
      </trkpt>
      <trkpt lat="43.50999" lon="5.88495">
        <ele>300.15</ele>
        <time>2020-01-18T07:50:53Z</time>
      </trkpt>
      <trkpt lat="43.51016" lon="5.88502">
        <ele>301.42</ele>
        <time>2020-01-18T07:51:01Z</time>
      </trkpt>
      <trkpt lat="43.51033" lon="5.88509">
        <ele>301.44</ele>
        <time>2020-01-18T07:51:07Z</time>
      </trkpt>
      <trkpt lat="43.51052" lon="5.88518">
        <ele>299.16</ele>
        <time>2020-01-18T07:51:16Z</time>
      </trkpt>
      <trkpt lat="43.51068" lon="5.88532">
        <ele>297.78</ele>
        <time>2020-01-18T07:51:25Z</time>
      </trkpt>
      <trkpt lat="43.51085" lon="5.88557">
        <ele>297.04</ele>
        <time>2020-01-18T07:51:33Z</time>
      </trkpt>
      <trkpt lat="43.51094" lon="5.88578">
        <ele>295.41</ele>
        <time>2020-01-18T07:51:38Z</time>
      </trkpt>
      <trkpt lat="43.51099" lon="5.88602">
        <ele>292.93</ele>
        <time>2020-01-18T07:51:46Z</time>
      </trkpt>
      <trkpt lat="43.51102" lon="5.88629">
        <ele>291.55</ele>
        <time>2020-01-18T07:51:55Z</time>
      </trkpt>
      <trkpt lat="43.51104" lon="5.88657">
        <ele>291.43</ele>
        <time>2020-01-18T07:52:04Z</time>
      </trkpt>
      <trkpt lat="43.51121" lon="5.88671">
        <ele>293.92</ele>
        <time>2020-01-18T07:52:22Z</time>
      </trkpt>
      <trkpt lat="43.51138" lon="5.88684">
        <ele>297.1</ele>
        <time>2020-01-18T07:52:33Z</time>
      </trkpt>
      <trkpt lat="43.51153" lon="5.887">
        <ele>298.92</ele>
        <time>2020-01-18T07:52:43Z</time>
      </trkpt>
      <trkpt lat="43.5117" lon="5.88705">
        <ele>301.49</ele>
        <time>2020-01-18T07:52:54Z</time>
      </trkpt>
      <trkpt lat="43.51189" lon="5.88707">
        <ele>304.68</ele>
        <time>2020-01-18T07:53:05Z</time>
      </trkpt>
      <trkpt lat="43.51206" lon="5.88715">
        <ele>305.39</ele>
        <time>2020-01-18T07:53:13Z</time>
      </trkpt>
      <trkpt lat="43.51224" lon="5.88716">
        <ele>302.88</ele>
        <time>2020-01-18T07:53:24Z</time>
      </trkpt>
      <trkpt lat="43.51241" lon="5.88728">
        <ele>308.83</ele>
        <time>2020-01-18T07:53:33Z</time>
      </trkpt>
      <trkpt lat="43.51259" lon="5.88736">
        <ele>311.73</ele>
        <time>2020-01-18T07:53:45Z</time>
      </trkpt>
      <trkpt lat="43.51273" lon="5.88755">
        <ele>311.37</ele>
        <time>2020-01-18T07:53:55Z</time>
      </trkpt>
      <trkpt lat="43.51279" lon="5.8878">
        <ele>311.76</ele>
        <time>2020-01-18T07:54:04Z</time>
      </trkpt>
      <trkpt lat="43.51285" lon="5.88805">
        <ele>312.54</ele>
        <time>2020-01-18T07:54:12Z</time>
      </trkpt>
      <trkpt lat="43.51301" lon="5.88816">
        <ele>315.33</ele>
        <time>2020-01-18T07:54:28Z</time>
      </trkpt>
      <trkpt lat="43.51317" lon="5.88834">
        <ele>315.45</ele>
        <time>2020-01-18T07:54:39Z</time>
      </trkpt>
      <trkpt lat="43.51324" lon="5.88857">
        <ele>317.17</ele>
        <time>2020-01-18T07:54:53Z</time>
      </trkpt>
      <trkpt lat="43.51328" lon="5.88883">
        <ele>319.1</ele>
        <time>2020-01-18T07:55:09Z</time>
      </trkpt>
      <trkpt lat="43.5133" lon="5.88909">
        <ele>321.24</ele>
        <time>2020-01-18T07:55:19Z</time>
      </trkpt>
      <trkpt lat="43.51327" lon="5.88934">
        <ele>323.91</ele>
        <time>2020-01-18T07:55:34Z</time>
      </trkpt>
      <trkpt lat="43.51311" lon="5.88953">
        <ele>326.74</ele>
        <time>2020-01-18T07:55:46Z</time>
      </trkpt>
      <trkpt lat="43.51302" lon="5.88977">
        <ele>330.57</ele>
        <time>2020-01-18T07:56:00Z</time>
      </trkpt>
      <trkpt lat="43.51291" lon="5.88996">
        <ele>334.59</ele>
        <time>2020-01-18T07:56:12Z</time>
      </trkpt>
      <trkpt lat="43.5128" lon="5.89018">
        <ele>338.07</ele>
        <time>2020-01-18T07:56:24Z</time>
      </trkpt>
      <trkpt lat="43.5127" lon="5.89041">
        <ele>342.39</ele>
        <time>2020-01-18T07:56:39Z</time>
      </trkpt>
      <trkpt lat="43.51256" lon="5.89059">
        <ele>346.27</ele>
        <time>2020-01-18T07:56:51Z</time>
      </trkpt>
      <trkpt lat="43.51244" lon="5.89078">
        <ele>349.71</ele>
        <time>2020-01-18T07:57:03Z</time>
      </trkpt>
      <trkpt lat="43.51229" lon="5.89092">
        <ele>353.6</ele>
        <time>2020-01-18T07:57:16Z</time>
      </trkpt>
      <trkpt lat="43.51212" lon="5.89105">
        <ele>355.74</ele>
        <time>2020-01-18T07:57:24Z</time>
      </trkpt>
      <trkpt lat="43.51199" lon="5.89124">
        <ele>358.79</ele>
        <time>2020-01-18T07:57:37Z</time>
      </trkpt>
      <trkpt lat="43.51185" lon="5.8914">
        <ele>361.89</ele>
        <time>2020-01-18T07:57:48Z</time>
      </trkpt>
      <trkpt lat="43.51169" lon="5.89153">
        <ele>364.22</ele>
        <time>2020-01-18T07:57:57Z</time>
      </trkpt>
      <trkpt lat="43.51152" lon="5.89164">
        <ele>366.57</ele>
        <time>2020-01-18T07:58:07Z</time>
      </trkpt>
      <trkpt lat="43.51135" lon="5.89179">
        <ele>370.97</ele>
        <time>2020-01-18T07:58:20Z</time>
      </trkpt>
      <trkpt lat="43.5112" lon="5.89196">
        <ele>376.15</ele>
        <time>2020-01-18T07:58:32Z</time>
      </trkpt>
      <trkpt lat="43.5111" lon="5.89218">
        <ele>380.47</ele>
        <time>2020-01-18T07:58:44Z</time>
      </trkpt>
      <trkpt lat="43.51096" lon="5.89234">
        <ele>382.1</ele>
        <time>2020-01-18T07:58:53Z</time>
      </trkpt>
      <trkpt lat="43.51092" lon="5.89259">
        <ele>384.4</ele>
        <time>2020-01-18T07:59:02Z</time>
      </trkpt>
      <trkpt lat="43.51081" lon="5.89279">
        <ele>382.83</ele>
        <time>2020-01-18T07:59:10Z</time>
      </trkpt>
      <trkpt lat="43.51096" lon="5.89293">
        <ele>383.62</ele>
        <time>2020-01-18T07:59:23Z</time>
      </trkpt>
      <trkpt lat="43.51116" lon="5.89302">
        <ele>385.18</ele>
        <time>2020-01-18T07:59:32Z</time>
      </trkpt>
      <trkpt lat="43.51134" lon="5.89303">
        <ele>386.56</ele>
        <time>2020-01-18T07:59:40Z</time>
      </trkpt>
      <trkpt lat="43.51153" lon="5.89313">
        <ele>385.44</ele>
        <time>2020-01-18T07:59:46Z</time>
      </trkpt>
      <trkpt lat="43.51172" lon="5.89318">
        <ele>387.07</ele>
        <time>2020-01-18T07:59:53Z</time>
      </trkpt>
      <trkpt lat="43.51191" lon="5.89322">
        <ele>386.79</ele>
        <time>2020-01-18T07:59:59Z</time>
      </trkpt>
      <trkpt lat="43.5121" lon="5.89333">
        <ele>389.46</ele>
        <time>2020-01-18T08:00:08Z</time>
      </trkpt>
      <trkpt lat="43.51229" lon="5.89342">
        <ele>394.32</ele>
        <time>2020-01-18T08:00:17Z</time>
      </trkpt>
      <trkpt lat="43.51245" lon="5.89357">
        <ele>399.24</ele>
        <time>2020-01-18T08:00:26Z</time>
      </trkpt>
      <trkpt lat="43.51255" lon="5.89378">
        <ele>403.62</ele>
        <time>2020-01-18T08:00:34Z</time>
      </trkpt>
      <trkpt lat="43.5127" lon="5.89393">
        <ele>407.4</ele>
        <time>2020-01-18T08:00:42Z</time>
      </trkpt>
      <trkpt lat="43.51284" lon="5.8941">
        <ele>409.66</ele>
        <time>2020-01-18T08:00:49Z</time>
      </trkpt>
      <trkpt lat="43.51298" lon="5.89427">
        <ele>408.83</ele>
        <time>2020-01-18T08:00:57Z</time>
      </trkpt>
      <trkpt lat="43.51317" lon="5.89433">
        <ele>409.04</ele>
        <time>2020-01-18T08:01:05Z</time>
      </trkpt>
      <trkpt lat="43.51337" lon="5.89438">
        <ele>407.34</ele>
        <time>2020-01-18T08:01:11Z</time>
      </trkpt>
      <trkpt lat="43.51355" lon="5.89442">
        <ele>407.34</ele>
        <time>2020-01-18T08:01:16Z</time>
      </trkpt>
      <trkpt lat="43.51381" lon="5.8944">
        <ele>405.77</ele>
        <time>2020-01-18T08:01:21Z</time>
      </trkpt>
      <trkpt lat="43.51398" lon="5.89461">
        <ele>403.85</ele>
        <time>2020-01-18T08:01:25Z</time>
      </trkpt>
      <trkpt lat="43.51415" lon="5.89476">
        <ele>400.04</ele>
        <time>2020-01-18T08:01:28Z</time>
      </trkpt>
      <trkpt lat="43.51433" lon="5.89486">
        <ele>398.29</ele>
        <time>2020-01-18T08:01:32Z</time>
      </trkpt>
      <trkpt lat="43.51448" lon="5.89499">
        <ele>394.2</ele>
        <time>2020-01-18T08:01:35Z</time>
      </trkpt>
      <trkpt lat="43.51468" lon="5.89506">
        <ele>393.89</ele>
        <time>2020-01-18T08:01:39Z</time>
      </trkpt>
      <trkpt lat="43.5149" lon="5.89519">
        <ele>392.14</ele>
        <time>2020-01-18T08:01:43Z</time>
      </trkpt>
      <trkpt lat="43.51509" lon="5.89531">
        <ele>389.26</ele>
        <time>2020-01-18T08:01:47Z</time>
      </trkpt>
      <trkpt lat="43.51527" lon="5.89539">
        <ele>388.96</ele>
        <time>2020-01-18T08:01:51Z</time>
      </trkpt>
      <trkpt lat="43.51549" lon="5.89547">
        <ele>387.86</ele>
        <time>2020-01-18T08:01:55Z</time>
      </trkpt>
      <trkpt lat="43.51563" lon="5.89567">
        <ele>386.73</ele>
        <time>2020-01-18T08:01:59Z</time>
      </trkpt>
      <trkpt lat="43.51576" lon="5.8959">
        <ele>385.23</ele>
        <time>2020-01-18T08:02:04Z</time>
      </trkpt>
      <trkpt lat="43.51577" lon="5.8962">
        <ele>382.23</ele>
        <time>2020-01-18T08:02:10Z</time>
      </trkpt>
      <trkpt lat="43.51588" lon="5.89644">
        <ele>375.89</ele>
        <time>2020-01-18T08:02:15Z</time>
      </trkpt>
      <trkpt lat="43.51605" lon="5.89656">
        <ele>372.75</ele>
        <time>2020-01-18T08:02:22Z</time>
      </trkpt>
      <trkpt lat="43.51621" lon="5.8967">
        <ele>371.8</ele>
        <time>2020-01-18T08:02:28Z</time>
      </trkpt>
      <trkpt lat="43.51639" lon="5.8968">
        <ele>370.43</ele>
        <time>2020-01-18T08:02:33Z</time>
      </trkpt>
      <trkpt lat="43.5166" lon="5.89688">
        <ele>369.95</ele>
        <time>2020-01-18T08:02:39Z</time>
      </trkpt>
      <trkpt lat="43.51679" lon="5.89696">
        <ele>369.41</ele>
        <time>2020-01-18T08:02:44Z</time>
      </trkpt>
      <trkpt lat="43.51698" lon="5.89699">
        <ele>368.7</ele>
        <time>2020-01-18T08:02:48Z</time>
      </trkpt>
      <trkpt lat="43.51716" lon="5.89703">
        <ele>369.49</ele>
        <time>2020-01-18T08:02:52Z</time>
      </trkpt>
      <trkpt lat="43.51735" lon="5.89716">
        <ele>370</ele>
        <time>2020-01-18T08:02:57Z</time>
      </trkpt>
      <trkpt lat="43.51756" lon="5.89721">
        <ele>370.43</ele>
        <time>2020-01-18T08:03:01Z</time>
      </trkpt>
      <trkpt lat="43.51777" lon="5.89717">
        <ele>369.39</ele>
        <time>2020-01-18T08:03:05Z</time>
      </trkpt>
      <trkpt lat="43.51796" lon="5.89719">
        <ele>369.14</ele>
        <time>2020-01-18T08:03:09Z</time>
      </trkpt>
      <trkpt lat="43.51815" lon="5.8972">
        <ele>366.38</ele>
        <time>2020-01-18T08:03:13Z</time>
      </trkpt>
      <trkpt lat="43.51834" lon="5.89717">
        <ele>362.83</ele>
        <time>2020-01-18T08:03:17Z</time>
      </trkpt>
      <trkpt lat="43.51854" lon="5.89708">
        <ele>356.53</ele>
        <time>2020-01-18T08:03:20Z</time>
      </trkpt>
      <trkpt lat="43.51874" lon="5.89704">
        <ele>353.29</ele>
        <time>2020-01-18T08:03:24Z</time>
      </trkpt>
      <trkpt lat="43.51893" lon="5.89703">
        <ele>351.07</ele>
        <time>2020-01-18T08:03:28Z</time>
      </trkpt>
      <trkpt lat="43.51911" lon="5.89702">
        <ele>349.88</ele>
        <time>2020-01-18T08:03:32Z</time>
      </trkpt>
      <trkpt lat="43.51931" lon="5.89691">
        <ele>345.29</ele>
        <time>2020-01-18T08:03:36Z</time>
      </trkpt>
      <trkpt lat="43.51948" lon="5.89682">
        <ele>340.76</ele>
        <time>2020-01-18T08:03:39Z</time>
      </trkpt>
      <trkpt lat="43.51968" lon="5.89676">
        <ele>338.49</ele>
        <time>2020-01-18T08:03:43Z</time>
      </trkpt>
      <trkpt lat="43.51986" lon="5.89668">
        <ele>336.16</ele>
        <time>2020-01-18T08:03:47Z</time>
      </trkpt>
      <trkpt lat="43.52007" lon="5.89658">
        <ele>333.28</ele>
        <time>2020-01-18T08:03:52Z</time>
      </trkpt>
      <trkpt lat="43.52028" lon="5.89654">
        <ele>331.15</ele>
        <time>2020-01-18T08:03:57Z</time>
      </trkpt>
      <trkpt lat="43.52048" lon="5.89651">
        <ele>331.09</ele>
        <time>2020-01-18T08:04:03Z</time>
      </trkpt>
      <trkpt lat="43.52066" lon="5.89644">
        <ele>332.6</ele>
        <time>2020-01-18T08:04:08Z</time>
      </trkpt>
      <trkpt lat="43.52084" lon="5.89634">
        <ele>333.46</ele>
        <time>2020-01-18T08:04:12Z</time>
      </trkpt>
      <trkpt lat="43.52103" lon="5.89627">
        <ele>333.47</ele>
        <time>2020-01-18T08:04:17Z</time>
      </trkpt>
      <trkpt lat="43.52121" lon="5.89621">
        <ele>332.84</ele>
        <time>2020-01-18T08:04:22Z</time>
      </trkpt>
      <trkpt lat="43.52142" lon="5.89611">
        <ele>332.09</ele>
        <time>2020-01-18T08:04:27Z</time>
      </trkpt>
      <trkpt lat="43.52161" lon="5.89603">
        <ele>331.75</ele>
        <time>2020-01-18T08:04:31Z</time>
      </trkpt>
      <trkpt lat="43.5218" lon="5.89597">
        <ele>331.33</ele>
        <time>2020-01-18T08:04:35Z</time>
      </trkpt>
      <trkpt lat="43.522" lon="5.89589">
        <ele>330.6</ele>
        <time>2020-01-18T08:04:40Z</time>
      </trkpt>
      <trkpt lat="43.52218" lon="5.89577">
        <ele>330.57</ele>
        <time>2020-01-18T08:04:44Z</time>
      </trkpt>
      <trkpt lat="43.52238" lon="5.89565">
        <ele>328.95</ele>
        <time>2020-01-18T08:04:48Z</time>
      </trkpt>
      <trkpt lat="43.52257" lon="5.89561">
        <ele>328.27</ele>
        <time>2020-01-18T08:04:52Z</time>
      </trkpt>
      <trkpt lat="43.52281" lon="5.8956">
        <ele>329.5</ele>
        <time>2020-01-18T08:04:56Z</time>
      </trkpt>
      <trkpt lat="43.523" lon="5.89564">
        <ele>331.69</ele>
        <time>2020-01-18T08:04:59Z</time>
      </trkpt>
      <trkpt lat="43.52319" lon="5.89564">
        <ele>334.3</ele>
        <time>2020-01-18T08:05:03Z</time>
      </trkpt>
      <trkpt lat="43.52339" lon="5.89562">
        <ele>334.82</ele>
        <time>2020-01-18T08:05:07Z</time>
      </trkpt>
      <trkpt lat="43.52361" lon="5.89562">
        <ele>337.11</ele>
        <time>2020-01-18T08:05:12Z</time>
      </trkpt>
      <trkpt lat="43.52383" lon="5.89564">
        <ele>339.93</ele>
        <time>2020-01-18T08:05:18Z</time>
      </trkpt>
      <trkpt lat="43.52403" lon="5.89564">
        <ele>342.39</ele>
        <time>2020-01-18T08:05:23Z</time>
      </trkpt>
      <trkpt lat="43.52422" lon="5.89567">
        <ele>343.01</ele>
        <time>2020-01-18T08:05:28Z</time>
      </trkpt>
      <trkpt lat="43.52443" lon="5.8957">
        <ele>342.52</ele>
        <time>2020-01-18T08:05:31Z</time>
      </trkpt>
      <trkpt lat="43.52461" lon="5.89568">
        <ele>343.17</ele>
        <time>2020-01-18T08:05:35Z</time>
      </trkpt>
      <trkpt lat="43.52482" lon="5.89566">
        <ele>344.55</ele>
        <time>2020-01-18T08:05:40Z</time>
      </trkpt>
      <trkpt lat="43.52503" lon="5.89568">
        <ele>346.52</ele>
        <time>2020-01-18T08:05:45Z</time>
      </trkpt>
      <trkpt lat="43.52523" lon="5.89568">
        <ele>346.5</ele>
        <time>2020-01-18T08:05:49Z</time>
      </trkpt>
      <trkpt lat="43.52541" lon="5.89569">
        <ele>347.36</ele>
        <time>2020-01-18T08:05:53Z</time>
      </trkpt>
      <trkpt lat="43.52562" lon="5.89571">
        <ele>347.31</ele>
        <time>2020-01-18T08:05:57Z</time>
      </trkpt>
      <trkpt lat="43.52581" lon="5.89576">
        <ele>347.71</ele>
        <time>2020-01-18T08:06:00Z</time>
      </trkpt>
      <trkpt lat="43.52602" lon="5.89582">
        <ele>348.25</ele>
        <time>2020-01-18T08:06:04Z</time>
      </trkpt>
      <trkpt lat="43.52622" lon="5.89583">
        <ele>346.62</ele>
        <time>2020-01-18T08:06:08Z</time>
      </trkpt>
      <trkpt lat="43.52641" lon="5.89583">
        <ele>346.13</ele>
        <time>2020-01-18T08:06:11Z</time>
      </trkpt>
      <trkpt lat="43.52661" lon="5.89584">
        <ele>344.88</ele>
        <time>2020-01-18T08:06:14Z</time>
      </trkpt>
      <trkpt lat="43.52681" lon="5.89588">
        <ele>343.52</ele>
        <time>2020-01-18T08:06:17Z</time>
      </trkpt>
      <trkpt lat="43.52703" lon="5.8959">
        <ele>343.67</ele>
        <time>2020-01-18T08:06:21Z</time>
      </trkpt>
      <trkpt lat="43.52725" lon="5.89591">
        <ele>343.93</ele>
        <time>2020-01-18T08:06:25Z</time>
      </trkpt>
      <trkpt lat="43.52746" lon="5.89591">
        <ele>343.76</ele>
        <time>2020-01-18T08:06:29Z</time>
      </trkpt>
      <trkpt lat="43.52766" lon="5.89591">
        <ele>343.58</ele>
        <time>2020-01-18T08:06:32Z</time>
      </trkpt>
      <trkpt lat="43.52787" lon="5.89578">
        <ele>342.03</ele>
        <time>2020-01-18T08:06:36Z</time>
      </trkpt>
      <trkpt lat="43.52807" lon="5.89567">
        <ele>339.93</ele>
        <time>2020-01-18T08:06:41Z</time>
      </trkpt>
      <trkpt lat="43.52829" lon="5.89552">
        <ele>334.04</ele>
        <time>2020-01-18T08:06:45Z</time>
      </trkpt>
      <trkpt lat="43.52847" lon="5.89541">
        <ele>331.43</ele>
        <time>2020-01-18T08:06:49Z</time>
      </trkpt>
      <trkpt lat="43.52868" lon="5.89531">
        <ele>328.61</ele>
        <time>2020-01-18T08:06:55Z</time>
      </trkpt>
      <trkpt lat="43.52887" lon="5.89523">
        <ele>327.27</ele>
        <time>2020-01-18T08:07:00Z</time>
      </trkpt>
      <trkpt lat="43.52906" lon="5.89513">
        <ele>327.53</ele>
        <time>2020-01-18T08:07:05Z</time>
      </trkpt>
      <trkpt lat="43.52926" lon="5.89505">
        <ele>327.47</ele>
        <time>2020-01-18T08:07:10Z</time>
      </trkpt>
      <trkpt lat="43.52944" lon="5.89498">
        <ele>326.2</ele>
        <time>2020-01-18T08:07:15Z</time>
      </trkpt>
      <trkpt lat="43.52962" lon="5.89489">
        <ele>325.42</ele>
        <time>2020-01-18T08:07:20Z</time>
      </trkpt>
      <trkpt lat="43.5298" lon="5.89479">
        <ele>325.57</ele>
        <time>2020-01-18T08:07:25Z</time>
      </trkpt>
      <trkpt lat="43.52999" lon="5.8947">
        <ele>326.37</ele>
        <time>2020-01-18T08:07:30Z</time>
      </trkpt>
      <trkpt lat="43.53018" lon="5.89459">
        <ele>327.71</ele>
        <time>2020-01-18T08:07:35Z</time>
      </trkpt>
      <trkpt lat="43.53035" lon="5.89449">
        <ele>326.71</ele>
        <time>2020-01-18T08:07:40Z</time>
      </trkpt>
      <trkpt lat="43.53052" lon="5.89438">
        <ele>324.88</ele>
        <time>2020-01-18T08:07:45Z</time>
      </trkpt>
      <trkpt lat="43.53068" lon="5.89423">
        <ele>324.3</ele>
        <time>2020-01-18T08:07:50Z</time>
      </trkpt>
      <trkpt lat="43.53085" lon="5.89407">
        <ele>323.81</ele>
        <time>2020-01-18T08:07:56Z</time>
      </trkpt>
      <trkpt lat="43.53101" lon="5.89391">
        <ele>322.63</ele>
        <time>2020-01-18T08:08:02Z</time>
      </trkpt>
      <trkpt lat="43.53116" lon="5.89376">
        <ele>321.53</ele>
        <time>2020-01-18T08:08:08Z</time>
      </trkpt>
      <trkpt lat="43.53131" lon="5.8936">
        <ele>319.7</ele>
        <time>2020-01-18T08:08:15Z</time>
      </trkpt>
      <trkpt lat="43.53149" lon="5.89353">
        <ele>319.91</ele>
        <time>2020-01-18T08:08:23Z</time>
      </trkpt>
      <trkpt lat="43.53169" lon="5.89358">
        <ele>324</ele>
        <time>2020-01-18T08:08:31Z</time>
      </trkpt>
      <trkpt lat="43.53188" lon="5.89363">
        <ele>329.45</ele>
        <time>2020-01-18T08:08:38Z</time>
      </trkpt>
      <trkpt lat="43.53209" lon="5.89364">
        <ele>331.48</ele>
        <time>2020-01-18T08:08:43Z</time>
      </trkpt>
      <trkpt lat="43.53229" lon="5.89359">
        <ele>333.83</ele>
        <time>2020-01-18T08:08:48Z</time>
      </trkpt>
      <trkpt lat="43.53247" lon="5.8935">
        <ele>335.63</ele>
        <time>2020-01-18T08:08:53Z</time>
      </trkpt>
      <trkpt lat="43.53267" lon="5.89341">
        <ele>337.73</ele>
        <time>2020-01-18T08:08:59Z</time>
      </trkpt>
      <trkpt lat="43.53286" lon="5.89333">
        <ele>339.71</ele>
        <time>2020-01-18T08:09:05Z</time>
      </trkpt>
      <trkpt lat="43.53303" lon="5.89323">
        <ele>339.73</ele>
        <time>2020-01-18T08:09:10Z</time>
      </trkpt>
      <trkpt lat="43.5332" lon="5.89313">
        <ele>339.86</ele>
        <time>2020-01-18T08:09:16Z</time>
      </trkpt>
      <trkpt lat="43.53337" lon="5.89304">
        <ele>339.8</ele>
        <time>2020-01-18T08:09:22Z</time>
      </trkpt>
      <trkpt lat="43.53357" lon="5.8931">
        <ele>340.36</ele>
        <time>2020-01-18T08:09:28Z</time>
      </trkpt>
      <trkpt lat="43.53372" lon="5.89327">
        <ele>341.38</ele>
        <time>2020-01-18T08:09:34Z</time>
      </trkpt>
      <trkpt lat="43.53388" lon="5.89342">
        <ele>343.29</ele>
        <time>2020-01-18T08:09:41Z</time>
      </trkpt>
      <trkpt lat="43.53402" lon="5.89357">
        <ele>345.63</ele>
        <time>2020-01-18T08:09:47Z</time>
      </trkpt>
      <trkpt lat="43.53417" lon="5.89374">
        <ele>347.87</ele>
        <time>2020-01-18T08:09:54Z</time>
      </trkpt>
      <trkpt lat="43.53432" lon="5.89393">
        <ele>350.89</ele>
        <time>2020-01-18T08:10:02Z</time>
      </trkpt>
      <trkpt lat="43.53449" lon="5.89407">
        <ele>353.14</ele>
        <time>2020-01-18T08:10:10Z</time>
      </trkpt>
      <trkpt lat="43.53467" lon="5.89395">
        <ele>352.43</ele>
        <time>2020-01-18T08:10:15Z</time>
      </trkpt>
      <trkpt lat="43.53485" lon="5.89381">
        <ele>351.46</ele>
        <time>2020-01-18T08:10:20Z</time>
      </trkpt>
      <trkpt lat="43.53502" lon="5.89373">
        <ele>349.78</ele>
        <time>2020-01-18T08:10:24Z</time>
      </trkpt>
      <trkpt lat="43.53524" lon="5.89369">
        <ele>346.88</ele>
        <time>2020-01-18T08:10:29Z</time>
      </trkpt>
      <trkpt lat="43.53544" lon="5.89369">
        <ele>343.29</ele>
        <time>2020-01-18T08:10:34Z</time>
      </trkpt>
      <trkpt lat="43.53561" lon="5.89378">
        <ele>341.01</ele>
        <time>2020-01-18T08:10:39Z</time>
      </trkpt>
      <trkpt lat="43.5358" lon="5.89387">
        <ele>341.25</ele>
        <time>2020-01-18T08:10:46Z</time>
      </trkpt>
      <trkpt lat="43.53596" lon="5.89399">
        <ele>340.65</ele>
        <time>2020-01-18T08:10:52Z</time>
      </trkpt>
      <trkpt lat="43.53616" lon="5.89408">
        <ele>339.79</ele>
        <time>2020-01-18T08:10:58Z</time>
      </trkpt>
      <trkpt lat="43.53634" lon="5.89407">
        <ele>338.09</ele>
        <time>2020-01-18T08:11:04Z</time>
      </trkpt>
      <trkpt lat="43.53657" lon="5.89405">
        <ele>335.77</ele>
        <time>2020-01-18T08:11:10Z</time>
      </trkpt>
      <trkpt lat="43.53675" lon="5.89395">
        <ele>333.76</ele>
        <time>2020-01-18T08:11:16Z</time>
      </trkpt>
      <trkpt lat="43.53693" lon="5.89386">
        <ele>332.15</ele>
        <time>2020-01-18T08:11:22Z</time>
      </trkpt>
      <trkpt lat="43.53712" lon="5.89378">
        <ele>330.11</ele>
        <time>2020-01-18T08:11:29Z</time>
      </trkpt>
      <trkpt lat="43.5373" lon="5.89368">
        <ele>328.03</ele>
        <time>2020-01-18T08:11:35Z</time>
      </trkpt>
      <trkpt lat="43.5375" lon="5.89359">
        <ele>327.19</ele>
        <time>2020-01-18T08:11:41Z</time>
      </trkpt>
      <trkpt lat="43.53769" lon="5.89351">
        <ele>326.75</ele>
        <time>2020-01-18T08:11:47Z</time>
      </trkpt>
      <trkpt lat="43.53786" lon="5.89341">
        <ele>325.24</ele>
        <time>2020-01-18T08:11:53Z</time>
      </trkpt>
      <trkpt lat="43.53805" lon="5.89331">
        <ele>323.68</ele>
        <time>2020-01-18T08:12:00Z</time>
      </trkpt>
      <trkpt lat="43.53823" lon="5.8932">
        <ele>322.87</ele>
        <time>2020-01-18T08:12:07Z</time>
      </trkpt>
      <trkpt lat="43.53841" lon="5.89306">
        <ele>322.23</ele>
        <time>2020-01-18T08:12:14Z</time>
      </trkpt>
      <trkpt lat="43.53859" lon="5.893">
        <ele>321.91</ele>
        <time>2020-01-18T08:12:22Z</time>
      </trkpt>
      <trkpt lat="43.53878" lon="5.89304">
        <ele>326.75</ele>
        <time>2020-01-18T08:12:31Z</time>
      </trkpt>
      <trkpt lat="43.53896" lon="5.89306">
        <ele>329.73</ele>
        <time>2020-01-18T08:12:40Z</time>
      </trkpt>
      <trkpt lat="43.53914" lon="5.89307">
        <ele>330.71</ele>
        <time>2020-01-18T08:12:47Z</time>
      </trkpt>
      <trkpt lat="43.53933" lon="5.89313">
        <ele>332.21</ele>
        <time>2020-01-18T08:12:53Z</time>
      </trkpt>
      <trkpt lat="43.53953" lon="5.89323">
        <ele>333.62</ele>
        <time>2020-01-18T08:13:00Z</time>
      </trkpt>
      <trkpt lat="43.53971" lon="5.89333">
        <ele>336.68</ele>
        <time>2020-01-18T08:13:08Z</time>
      </trkpt>
      <trkpt lat="43.53988" lon="5.89344">
        <ele>339.67</ele>
        <time>2020-01-18T08:13:16Z</time>
      </trkpt>
      <trkpt lat="43.54007" lon="5.89352">
        <ele>342.98</ele>
        <time>2020-01-18T08:13:25Z</time>
      </trkpt>
      <trkpt lat="43.54023" lon="5.89362">
        <ele>346.37</ele>
        <time>2020-01-18T08:13:34Z</time>
      </trkpt>
      <trkpt lat="43.54042" lon="5.89367">
        <ele>347.64</ele>
        <time>2020-01-18T08:13:43Z</time>
      </trkpt>
      <trkpt lat="43.54062" lon="5.89371">
        <ele>347.87</ele>
        <time>2020-01-18T08:13:50Z</time>
      </trkpt>
      <trkpt lat="43.54084" lon="5.89362">
        <ele>347.12</ele>
        <time>2020-01-18T08:13:54Z</time>
      </trkpt>
      <trkpt lat="43.54104" lon="5.89352">
        <ele>346.22</ele>
        <time>2020-01-18T08:13:59Z</time>
      </trkpt>
      <trkpt lat="43.54123" lon="5.89343">
        <ele>345.77</ele>
        <time>2020-01-18T08:14:05Z</time>
      </trkpt>
      <trkpt lat="43.54141" lon="5.89333">
        <ele>345.67</ele>
        <time>2020-01-18T08:14:11Z</time>
      </trkpt>
      <trkpt lat="43.54159" lon="5.89327">
        <ele>345.37</ele>
        <time>2020-01-18T08:14:17Z</time>
      </trkpt>
      <trkpt lat="43.54178" lon="5.89328">
        <ele>345.34</ele>
        <time>2020-01-18T08:14:23Z</time>
      </trkpt>
      <trkpt lat="43.54196" lon="5.89333">
        <ele>345.27</ele>
        <time>2020-01-18T08:14:29Z</time>
      </trkpt>
      <trkpt lat="43.54215" lon="5.89339">
        <ele>345.87</ele>
        <time>2020-01-18T08:14:37Z</time>
      </trkpt>
      <trkpt lat="43.54233" lon="5.89345">
        <ele>346.33</ele>
        <time>2020-01-18T08:14:44Z</time>
      </trkpt>
      <trkpt lat="43.54252" lon="5.89353">
        <ele>347.96</ele>
        <time>2020-01-18T08:14:53Z</time>
      </trkpt>
      <trkpt lat="43.5427" lon="5.89351">
        <ele>347.89</ele>
        <time>2020-01-18T08:15:00Z</time>
      </trkpt>
      <trkpt lat="43.54288" lon="5.89353">
        <ele>347.94</ele>
        <time>2020-01-18T08:15:08Z</time>
      </trkpt>
      <trkpt lat="43.54307" lon="5.89357">
        <ele>347.94</ele>
        <time>2020-01-18T08:15:16Z</time>
      </trkpt>
      <trkpt lat="43.54325" lon="5.89362">
        <ele>348.4</ele>
        <time>2020-01-18T08:15:23Z</time>
      </trkpt>
      <trkpt lat="43.54345" lon="5.89364">
        <ele>347.67</ele>
        <time>2020-01-18T08:15:30Z</time>
      </trkpt>
      <trkpt lat="43.54363" lon="5.89365">
        <ele>347.55</ele>
        <time>2020-01-18T08:15:37Z</time>
      </trkpt>
      <trkpt lat="43.54367" lon="5.89339">
        <ele>338.44</ele>
        <time>2020-01-18T08:19:07Z</time>
      </trkpt>
      <trkpt lat="43.54359" lon="5.89317">
        <ele>340.02</ele>
        <time>2020-01-18T08:19:17Z</time>
      </trkpt>
      <trkpt lat="43.54357" lon="5.8929">
        <ele>343.26</ele>
        <time>2020-01-18T08:19:28Z</time>
      </trkpt>
      <trkpt lat="43.54356" lon="5.89264">
        <ele>348.07</ele>
        <time>2020-01-18T08:19:38Z</time>
      </trkpt>
      <trkpt lat="43.54347" lon="5.89242">
        <ele>350.42</ele>
        <time>2020-01-18T08:19:49Z</time>
      </trkpt>
      <trkpt lat="43.54337" lon="5.89221">
        <ele>350.91</ele>
        <time>2020-01-18T08:19:59Z</time>
      </trkpt>
      <trkpt lat="43.54326" lon="5.892">
        <ele>354.68</ele>
        <time>2020-01-18T08:20:11Z</time>
      </trkpt>
      <trkpt lat="43.54315" lon="5.89179">
        <ele>358.27</ele>
        <time>2020-01-18T08:20:23Z</time>
      </trkpt>
      <trkpt lat="43.54305" lon="5.89154">
        <ele>364.06</ele>
        <time>2020-01-18T08:20:36Z</time>
      </trkpt>
      <trkpt lat="43.54299" lon="5.8913">
        <ele>365.29</ele>
        <time>2020-01-18T08:20:44Z</time>
      </trkpt>
      <trkpt lat="43.54282" lon="5.89117">
        <ele>368.49</ele>
        <time>2020-01-18T08:20:59Z</time>
      </trkpt>
      <trkpt lat="43.54261" lon="5.8911">
        <ele>370.67</ele>
        <time>2020-01-18T08:21:08Z</time>
      </trkpt>
      <trkpt lat="43.54244" lon="5.89098">
        <ele>371.1</ele>
        <time>2020-01-18T08:21:16Z</time>
      </trkpt>
      <trkpt lat="43.54232" lon="5.89076">
        <ele>372.23</ele>
        <time>2020-01-18T08:21:25Z</time>
      </trkpt>
      <trkpt lat="43.54218" lon="5.89055">
        <ele>370.82</ele>
        <time>2020-01-18T08:21:33Z</time>
      </trkpt>
      <trkpt lat="43.54207" lon="5.89032">
        <ele>369.77</ele>
        <time>2020-01-18T08:21:43Z</time>
      </trkpt>
      <trkpt lat="43.54203" lon="5.89006">
        <ele>373.17</ele>
        <time>2020-01-18T08:21:54Z</time>
      </trkpt>
      <trkpt lat="43.54201" lon="5.88979">
        <ele>376.98</ele>
        <time>2020-01-18T08:22:05Z</time>
      </trkpt>
      <trkpt lat="43.54199" lon="5.88954">
        <ele>379.48</ele>
        <time>2020-01-18T08:22:15Z</time>
      </trkpt>
      <trkpt lat="43.54203" lon="5.88927">
        <ele>380.62</ele>
        <time>2020-01-18T08:22:22Z</time>
      </trkpt>
      <trkpt lat="43.54207" lon="5.88902">
        <ele>381.08</ele>
        <time>2020-01-18T08:22:29Z</time>
      </trkpt>
      <trkpt lat="43.54208" lon="5.88875">
        <ele>380.51</ele>
        <time>2020-01-18T08:22:37Z</time>
      </trkpt>
      <trkpt lat="43.54212" lon="5.88848">
        <ele>379.3</ele>
        <time>2020-01-18T08:22:45Z</time>
      </trkpt>
      <trkpt lat="43.5422" lon="5.88819">
        <ele>371.83</ele>
        <time>2020-01-18T08:24:09Z</time>
      </trkpt>
      <trkpt lat="43.54208" lon="5.8884">
        <ele>364.34</ele>
        <time>2020-01-18T08:28:52Z</time>
      </trkpt>
      <trkpt lat="43.54205" lon="5.88865">
        <ele>364.68</ele>
        <time>2020-01-18T08:29:03Z</time>
      </trkpt>
      <trkpt lat="43.542" lon="5.88892">
        <ele>364.58</ele>
        <time>2020-01-18T08:29:11Z</time>
      </trkpt>
      <trkpt lat="43.54194" lon="5.88918">
        <ele>363.14</ele>
        <time>2020-01-18T08:29:20Z</time>
      </trkpt>
      <trkpt lat="43.54188" lon="5.88941">
        <ele>360.48</ele>
        <time>2020-01-18T08:29:29Z</time>
      </trkpt>
      <trkpt lat="43.54186" lon="5.8897">
        <ele>358.31</ele>
        <time>2020-01-18T08:29:37Z</time>
      </trkpt>
      <trkpt lat="43.54189" lon="5.88998">
        <ele>359.64</ele>
        <time>2020-01-18T08:29:41Z</time>
      </trkpt>
      <trkpt lat="43.542" lon="5.89022">
        <ele>361.89</ele>
        <time>2020-01-18T08:29:46Z</time>
      </trkpt>
      <trkpt lat="43.54214" lon="5.89038">
        <ele>365.59</ele>
        <time>2020-01-18T08:29:52Z</time>
      </trkpt>
      <trkpt lat="43.54225" lon="5.89062">
        <ele>366.68</ele>
        <time>2020-01-18T08:30:00Z</time>
      </trkpt>
      <trkpt lat="43.54234" lon="5.89084">
        <ele>366.95</ele>
        <time>2020-01-18T08:30:05Z</time>
      </trkpt>
      <trkpt lat="43.54248" lon="5.891">
        <ele>367.79</ele>
        <time>2020-01-18T08:30:11Z</time>
      </trkpt>
      <trkpt lat="43.5426" lon="5.8912">
        <ele>366.47</ele>
        <time>2020-01-18T08:30:23Z</time>
      </trkpt>
      <trkpt lat="43.54278" lon="5.89128">
        <ele>366.94</ele>
        <time>2020-01-18T08:30:34Z</time>
      </trkpt>
      <trkpt lat="43.54297" lon="5.89136">
        <ele>366.11</ele>
        <time>2020-01-18T08:30:43Z</time>
      </trkpt>
      <trkpt lat="43.54311" lon="5.89153">
        <ele>364.21</ele>
        <time>2020-01-18T08:30:48Z</time>
      </trkpt>
      <trkpt lat="43.54322" lon="5.89178">
        <ele>362.74</ele>
        <time>2020-01-18T08:30:54Z</time>
      </trkpt>
      <trkpt lat="43.54333" lon="5.89198">
        <ele>360.6</ele>
        <time>2020-01-18T08:30:58Z</time>
      </trkpt>
      <trkpt lat="43.54346" lon="5.89219">
        <ele>361.06</ele>
        <time>2020-01-18T08:31:04Z</time>
      </trkpt>
      <trkpt lat="43.54339" lon="5.89243">
        <ele>356.21</ele>
        <time>2020-01-18T08:31:13Z</time>
      </trkpt>
      <trkpt lat="43.54343" lon="5.89271">
        <ele>353.23</ele>
        <time>2020-01-18T08:31:19Z</time>
      </trkpt>
      <trkpt lat="43.54352" lon="5.89296">
        <ele>351.54</ele>
        <time>2020-01-18T08:31:24Z</time>
      </trkpt>
      <trkpt lat="43.54359" lon="5.89322">
        <ele>349.49</ele>
        <time>2020-01-18T08:31:29Z</time>
      </trkpt>
      <trkpt lat="43.54376" lon="5.89337">
        <ele>349.19</ele>
        <time>2020-01-18T08:31:36Z</time>
      </trkpt>
      <trkpt lat="43.54394" lon="5.89353">
        <ele>344.32</ele>
        <time>2020-01-18T08:31:41Z</time>
      </trkpt>
      <trkpt lat="43.5441" lon="5.89365">
        <ele>343.21</ele>
        <time>2020-01-18T08:31:51Z</time>
      </trkpt>
      <trkpt lat="43.54422" lon="5.89345">
        <ele>349.55</ele>
        <time>2020-01-18T08:32:04Z</time>
      </trkpt>
      <trkpt lat="43.54424" lon="5.89318">
        <ele>350.65</ele>
        <time>2020-01-18T08:32:12Z</time>
      </trkpt>
      <trkpt lat="43.54431" lon="5.89293">
        <ele>353.19</ele>
        <time>2020-01-18T08:32:21Z</time>
      </trkpt>
      <trkpt lat="43.54441" lon="5.89271">
        <ele>355.23</ele>
        <time>2020-01-18T08:32:30Z</time>
      </trkpt>
      <trkpt lat="43.54445" lon="5.89245">
        <ele>357.18</ele>
        <time>2020-01-18T08:32:41Z</time>
      </trkpt>
      <trkpt lat="43.54442" lon="5.89219">
        <ele>356.41</ele>
        <time>2020-01-18T08:32:51Z</time>
      </trkpt>
      <trkpt lat="43.54435" lon="5.89196">
        <ele>356.06</ele>
        <time>2020-01-18T08:33:00Z</time>
      </trkpt>
      <trkpt lat="43.54428" lon="5.89172">
        <ele>356.03</ele>
        <time>2020-01-18T08:33:08Z</time>
      </trkpt>
      <trkpt lat="43.54421" lon="5.89148">
        <ele>357.89</ele>
        <time>2020-01-18T08:33:18Z</time>
      </trkpt>
      <trkpt lat="43.5442" lon="5.89124">
        <ele>359.26</ele>
        <time>2020-01-18T08:33:25Z</time>
      </trkpt>
      <trkpt lat="43.54416" lon="5.89099">
        <ele>361.09</ele>
        <time>2020-01-18T08:33:32Z</time>
      </trkpt>
      <trkpt lat="43.54425" lon="5.89075">
        <ele>362.64</ele>
        <time>2020-01-18T08:33:41Z</time>
      </trkpt>
      <trkpt lat="43.54439" lon="5.89057">
        <ele>365.62</ele>
        <time>2020-01-18T08:33:51Z</time>
      </trkpt>
      <trkpt lat="43.54457" lon="5.89049">
        <ele>368.24</ele>
        <time>2020-01-18T08:34:00Z</time>
      </trkpt>
      <trkpt lat="43.54476" lon="5.89046">
        <ele>371.04</ele>
        <time>2020-01-18T08:34:08Z</time>
      </trkpt>
      <trkpt lat="43.54494" lon="5.89044">
        <ele>374.06</ele>
        <time>2020-01-18T08:34:17Z</time>
      </trkpt>
      <trkpt lat="43.54513" lon="5.89039">
        <ele>373.74</ele>
        <time>2020-01-18T08:34:23Z</time>
      </trkpt>
      <trkpt lat="43.5453" lon="5.89025">
        <ele>375.14</ele>
        <time>2020-01-18T08:34:31Z</time>
      </trkpt>
      <trkpt lat="43.54548" lon="5.89015">
        <ele>374.5</ele>
        <time>2020-01-18T08:34:38Z</time>
      </trkpt>
      <trkpt lat="43.54568" lon="5.89008">
        <ele>370.03</ele>
        <time>2020-01-18T08:34:47Z</time>
      </trkpt>
      <trkpt lat="43.54586" lon="5.89002">
        <ele>374.28</ele>
        <time>2020-01-18T08:34:56Z</time>
      </trkpt>
      <trkpt lat="43.54604" lon="5.88992">
        <ele>372.25</ele>
        <time>2020-01-18T08:35:03Z</time>
      </trkpt>
      <trkpt lat="43.54623" lon="5.88982">
        <ele>371.85</ele>
        <time>2020-01-18T08:35:11Z</time>
      </trkpt>
      <trkpt lat="43.54642" lon="5.88976">
        <ele>370.49</ele>
        <time>2020-01-18T08:35:18Z</time>
      </trkpt>
      <trkpt lat="43.54662" lon="5.88968">
        <ele>370.35</ele>
        <time>2020-01-18T08:35:25Z</time>
      </trkpt>
      <trkpt lat="43.54682" lon="5.88966">
        <ele>369.43</ele>
        <time>2020-01-18T08:35:32Z</time>
      </trkpt>
      <trkpt lat="43.547" lon="5.88957">
        <ele>366.98</ele>
        <time>2020-01-18T08:35:38Z</time>
      </trkpt>
      <trkpt lat="43.54718" lon="5.88948">
        <ele>366.47</ele>
        <time>2020-01-18T08:35:44Z</time>
      </trkpt>
      <trkpt lat="43.54736" lon="5.88941">
        <ele>366.02</ele>
        <time>2020-01-18T08:35:52Z</time>
      </trkpt>
      <trkpt lat="43.54755" lon="5.88939">
        <ele>367.67</ele>
        <time>2020-01-18T08:36:00Z</time>
      </trkpt>
      <trkpt lat="43.54774" lon="5.88938">
        <ele>369.82</ele>
        <time>2020-01-18T08:36:07Z</time>
      </trkpt>
      <trkpt lat="43.54794" lon="5.88941">
        <ele>368.08</ele>
        <time>2020-01-18T08:36:15Z</time>
      </trkpt>
      <trkpt lat="43.54814" lon="5.88946">
        <ele>368.19</ele>
        <time>2020-01-18T08:36:24Z</time>
      </trkpt>
      <trkpt lat="43.54832" lon="5.88943">
        <ele>367.93</ele>
        <time>2020-01-18T08:36:32Z</time>
      </trkpt>
      <trkpt lat="43.54853" lon="5.88935">
        <ele>368.35</ele>
        <time>2020-01-18T08:36:41Z</time>
      </trkpt>
      <trkpt lat="43.54871" lon="5.88928">
        <ele>368.54</ele>
        <time>2020-01-18T08:36:50Z</time>
      </trkpt>
      <trkpt lat="43.54887" lon="5.88913">
        <ele>368.11</ele>
        <time>2020-01-18T08:36:58Z</time>
      </trkpt>
      <trkpt lat="43.54899" lon="5.88893">
        <ele>369.1</ele>
        <time>2020-01-18T08:37:06Z</time>
      </trkpt>
      <trkpt lat="43.54911" lon="5.88874">
        <ele>368.21</ele>
        <time>2020-01-18T08:37:34Z</time>
      </trkpt>
      <trkpt lat="43.54922" lon="5.88848">
        <ele>356.19</ele>
        <time>2020-01-18T08:38:37Z</time>
      </trkpt>
      <trkpt lat="43.54941" lon="5.88845">
        <ele>355.34</ele>
        <time>2020-01-18T08:39:02Z</time>
      </trkpt>
      <trkpt lat="43.54956" lon="5.88829">
        <ele>356.22</ele>
        <time>2020-01-18T08:39:12Z</time>
      </trkpt>
      <trkpt lat="43.54969" lon="5.88811">
        <ele>357.79</ele>
        <time>2020-01-18T08:39:19Z</time>
      </trkpt>
      <trkpt lat="43.54984" lon="5.88796">
        <ele>361.36</ele>
        <time>2020-01-18T08:39:27Z</time>
      </trkpt>
      <trkpt lat="43.54995" lon="5.88776">
        <ele>366.3</ele>
        <time>2020-01-18T08:39:36Z</time>
      </trkpt>
      <trkpt lat="43.55007" lon="5.88757">
        <ele>364.07</ele>
        <time>2020-01-18T08:39:53Z</time>
      </trkpt>
      <trkpt lat="43.55026" lon="5.88753">
        <ele>364.18</ele>
        <time>2020-01-18T08:40:10Z</time>
      </trkpt>
      <trkpt lat="43.55044" lon="5.88759">
        <ele>367.1</ele>
        <time>2020-01-18T08:40:26Z</time>
      </trkpt>
      <trkpt lat="43.55059" lon="5.88774">
        <ele>371.39</ele>
        <time>2020-01-18T08:40:40Z</time>
      </trkpt>
      <trkpt lat="43.55074" lon="5.88791">
        <ele>375.29</ele>
        <time>2020-01-18T08:40:54Z</time>
      </trkpt>
      <trkpt lat="43.55088" lon="5.88807">
        <ele>378.99</ele>
        <time>2020-01-18T08:41:07Z</time>
      </trkpt>
      <trkpt lat="43.55104" lon="5.88819">
        <ele>382.69</ele>
        <time>2020-01-18T08:41:19Z</time>
      </trkpt>
      <trkpt lat="43.55122" lon="5.88828">
        <ele>387.94</ele>
        <time>2020-01-18T08:41:31Z</time>
      </trkpt>
      <trkpt lat="43.55139" lon="5.88837">
        <ele>395.7</ele>
        <time>2020-01-18T08:41:44Z</time>
      </trkpt>
      <trkpt lat="43.55158" lon="5.88836">
        <ele>402.44</ele>
        <time>2020-01-18T08:41:55Z</time>
      </trkpt>
      <trkpt lat="43.55167" lon="5.88862">
        <ele>405.38</ele>
        <time>2020-01-18T08:42:11Z</time>
      </trkpt>
      <trkpt lat="43.55182" lon="5.88878">
        <ele>407.24</ele>
        <time>2020-01-18T08:42:20Z</time>
      </trkpt>
      <trkpt lat="43.552" lon="5.88886">
        <ele>409.19</ele>
        <time>2020-01-18T08:42:30Z</time>
      </trkpt>
      <trkpt lat="43.55218" lon="5.88898">
        <ele>411.74</ele>
        <time>2020-01-18T08:42:37Z</time>
      </trkpt>
      <trkpt lat="43.55231" lon="5.88919">
        <ele>411.39</ele>
        <time>2020-01-18T08:42:42Z</time>
      </trkpt>
      <trkpt lat="43.55233" lon="5.88945">
        <ele>408.36</ele>
        <time>2020-01-18T08:42:47Z</time>
      </trkpt>
      <trkpt lat="43.55239" lon="5.88969">
        <ele>405.62</ele>
        <time>2020-01-18T08:42:53Z</time>
      </trkpt>
      <trkpt lat="43.55248" lon="5.88994">
        <ele>404.28</ele>
        <time>2020-01-18T08:42:58Z</time>
      </trkpt>
      <trkpt lat="43.5526" lon="5.89012">
        <ele>403.44</ele>
        <time>2020-01-18T08:43:03Z</time>
      </trkpt>
      <trkpt lat="43.55271" lon="5.89034">
        <ele>402.17</ele>
        <time>2020-01-18T08:43:10Z</time>
      </trkpt>
      <trkpt lat="43.55285" lon="5.8905">
        <ele>401.51</ele>
        <time>2020-01-18T08:43:19Z</time>
      </trkpt>
      <trkpt lat="43.55302" lon="5.89067">
        <ele>397.85</ele>
        <time>2020-01-18T08:44:12Z</time>
      </trkpt>
      <trkpt lat="43.55322" lon="5.89069">
        <ele>392.47</ele>
        <time>2020-01-18T08:44:42Z</time>
      </trkpt>
      <trkpt lat="43.5534" lon="5.8906">
        <ele>392.17</ele>
        <time>2020-01-18T08:44:51Z</time>
      </trkpt>
      <trkpt lat="43.55356" lon="5.89049">
        <ele>392.45</ele>
        <time>2020-01-18T08:44:57Z</time>
      </trkpt>
      <trkpt lat="43.55375" lon="5.89042">
        <ele>393.94</ele>
        <time>2020-01-18T08:45:05Z</time>
      </trkpt>
      <trkpt lat="43.55393" lon="5.89036">
        <ele>396.08</ele>
        <time>2020-01-18T08:45:15Z</time>
      </trkpt>
      <trkpt lat="43.55409" lon="5.89026">
        <ele>399.33</ele>
        <time>2020-01-18T08:45:24Z</time>
      </trkpt>
      <trkpt lat="43.55426" lon="5.89016">
        <ele>402.22</ele>
        <time>2020-01-18T08:45:33Z</time>
      </trkpt>
      <trkpt lat="43.55442" lon="5.89001">
        <ele>405.79</ele>
        <time>2020-01-18T08:45:43Z</time>
      </trkpt>
      <trkpt lat="43.55458" lon="5.88985">
        <ele>406.99</ele>
        <time>2020-01-18T08:45:49Z</time>
      </trkpt>
      <trkpt lat="43.55475" lon="5.88975">
        <ele>412.7</ele>
        <time>2020-01-18T08:45:58Z</time>
      </trkpt>
      <trkpt lat="43.55493" lon="5.88973">
        <ele>417.25</ele>
        <time>2020-01-18T08:46:10Z</time>
      </trkpt>
      <trkpt lat="43.55514" lon="5.88966">
        <ele>421.34</ele>
        <time>2020-01-18T08:46:19Z</time>
      </trkpt>
      <trkpt lat="43.55532" lon="5.88964">
        <ele>423.63</ele>
        <time>2020-01-18T08:46:26Z</time>
      </trkpt>
      <trkpt lat="43.5555" lon="5.88959">
        <ele>425.97</ele>
        <time>2020-01-18T08:46:36Z</time>
      </trkpt>
      <trkpt lat="43.55567" lon="5.88946">
        <ele>429.13</ele>
        <time>2020-01-18T08:46:48Z</time>
      </trkpt>
      <trkpt lat="43.55582" lon="5.88931">
        <ele>434.42</ele>
        <time>2020-01-18T08:47:00Z</time>
      </trkpt>
      <trkpt lat="43.55601" lon="5.88917">
        <ele>434.72</ele>
        <time>2020-01-18T08:47:06Z</time>
      </trkpt>
      <trkpt lat="43.55617" lon="5.88906">
        <ele>439.61</ele>
        <time>2020-01-18T08:47:20Z</time>
      </trkpt>
      <trkpt lat="43.55633" lon="5.88891">
        <ele>444.46</ele>
        <time>2020-01-18T08:47:31Z</time>
      </trkpt>
      <trkpt lat="43.55648" lon="5.8887">
        <ele>444.61</ele>
        <time>2020-01-18T08:47:37Z</time>
      </trkpt>
      <trkpt lat="43.55663" lon="5.88855">
        <ele>447.44</ele>
        <time>2020-01-18T08:47:43Z</time>
      </trkpt>
      <trkpt lat="43.55681" lon="5.88849">
        <ele>451.25</ele>
        <time>2020-01-18T08:47:49Z</time>
      </trkpt>
      <trkpt lat="43.55701" lon="5.88845">
        <ele>449.89</ele>
        <time>2020-01-18T08:47:54Z</time>
      </trkpt>
      <trkpt lat="43.5572" lon="5.88841">
        <ele>446.23</ele>
        <time>2020-01-18T08:48:00Z</time>
      </trkpt>
      <trkpt lat="43.5574" lon="5.88833">
        <ele>442.39</ele>
        <time>2020-01-18T08:48:07Z</time>
      </trkpt>
      <trkpt lat="43.55758" lon="5.88823">
        <ele>440.82</ele>
        <time>2020-01-18T08:48:14Z</time>
      </trkpt>
      <trkpt lat="43.55775" lon="5.88813">
        <ele>438.58</ele>
        <time>2020-01-18T08:48:19Z</time>
      </trkpt>
      <trkpt lat="43.55793" lon="5.88807">
        <ele>437.71</ele>
        <time>2020-01-18T08:48:26Z</time>
      </trkpt>
      <trkpt lat="43.55812" lon="5.88802">
        <ele>434.35</ele>
        <time>2020-01-18T08:48:35Z</time>
      </trkpt>
      <trkpt lat="43.5583" lon="5.88789">
        <ele>432.89</ele>
        <time>2020-01-18T08:48:42Z</time>
      </trkpt>
      <trkpt lat="43.55847" lon="5.88776">
        <ele>430.68</ele>
        <time>2020-01-18T08:48:49Z</time>
      </trkpt>
      <trkpt lat="43.55866" lon="5.88765">
        <ele>430.26</ele>
        <time>2020-01-18T08:48:57Z</time>
      </trkpt>
      <trkpt lat="43.55883" lon="5.88752">
        <ele>430.86</ele>
        <time>2020-01-18T08:49:02Z</time>
      </trkpt>
      <trkpt lat="43.55902" lon="5.88745">
        <ele>432.21</ele>
        <time>2020-01-18T08:49:08Z</time>
      </trkpt>
      <trkpt lat="43.55921" lon="5.88741">
        <ele>436.69</ele>
        <time>2020-01-18T08:49:13Z</time>
      </trkpt>
      <trkpt lat="43.5594" lon="5.88746">
        <ele>442.67</ele>
        <time>2020-01-18T08:49:19Z</time>
      </trkpt>
      <trkpt lat="43.55959" lon="5.88754">
        <ele>446.91</ele>
        <time>2020-01-18T08:49:25Z</time>
      </trkpt>
      <trkpt lat="43.55978" lon="5.88755">
        <ele>451.68</ele>
        <time>2020-01-18T08:49:33Z</time>
      </trkpt>
      <trkpt lat="43.55997" lon="5.88756">
        <ele>454.53</ele>
        <time>2020-01-18T08:49:39Z</time>
      </trkpt>
      <trkpt lat="43.56016" lon="5.88767">
        <ele>458.18</ele>
        <time>2020-01-18T08:49:45Z</time>
      </trkpt>
      <trkpt lat="43.56036" lon="5.88769">
        <ele>452.06</ele>
        <time>2020-01-18T08:49:55Z</time>
      </trkpt>
      <trkpt lat="43.56055" lon="5.88759">
        <ele>447.61</ele>
        <time>2020-01-18T08:50:02Z</time>
      </trkpt>
      <trkpt lat="43.56072" lon="5.88748">
        <ele>440.11</ele>
        <time>2020-01-18T08:50:11Z</time>
      </trkpt>
      <trkpt lat="43.56084" lon="5.88727">
        <ele>434.69</ele>
        <time>2020-01-18T08:50:21Z</time>
      </trkpt>
      <trkpt lat="43.56104" lon="5.88707">
        <ele>425.85</ele>
        <time>2020-01-18T08:51:07Z</time>
      </trkpt>
      <trkpt lat="43.56123" lon="5.88704">
        <ele>423.27</ele>
        <time>2020-01-18T08:51:22Z</time>
      </trkpt>
      <trkpt lat="43.56143" lon="5.887">
        <ele>425.87</ele>
        <time>2020-01-18T08:51:33Z</time>
      </trkpt>
      <trkpt lat="43.56163" lon="5.88699">
        <ele>432.02</ele>
        <time>2020-01-18T08:51:43Z</time>
      </trkpt>
      <trkpt lat="43.56182" lon="5.887">
        <ele>437.61</ele>
        <time>2020-01-18T08:51:50Z</time>
      </trkpt>
      <trkpt lat="43.56201" lon="5.88701">
        <ele>442.36</ele>
        <time>2020-01-18T08:51:58Z</time>
      </trkpt>
      <trkpt lat="43.5622" lon="5.88697">
        <ele>450.33</ele>
        <time>2020-01-18T08:52:06Z</time>
      </trkpt>
      <trkpt lat="43.5624" lon="5.8869">
        <ele>458.27</ele>
        <time>2020-01-18T08:52:14Z</time>
      </trkpt>
      <trkpt lat="43.56257" lon="5.8868">
        <ele>465.39</ele>
        <time>2020-01-18T08:52:19Z</time>
      </trkpt>
      <trkpt lat="43.56277" lon="5.88687">
        <ele>479.91</ele>
        <time>2020-01-18T08:52:27Z</time>
      </trkpt>
      <trkpt lat="43.56296" lon="5.88694">
        <ele>480.8</ele>
        <time>2020-01-18T08:52:34Z</time>
      </trkpt>
      <trkpt lat="43.56315" lon="5.88694">
        <ele>482.76</ele>
        <time>2020-01-18T08:52:40Z</time>
      </trkpt>
      <trkpt lat="43.56334" lon="5.88702">
        <ele>471.81</ele>
        <time>2020-01-18T08:52:47Z</time>
      </trkpt>
      <trkpt lat="43.56353" lon="5.88709">
        <ele>453.42</ele>
        <time>2020-01-18T08:52:55Z</time>
      </trkpt>
      <trkpt lat="43.56372" lon="5.88703">
        <ele>441.06</ele>
        <time>2020-01-18T08:53:06Z</time>
      </trkpt>
      <trkpt lat="43.5639" lon="5.88695">
        <ele>438.68</ele>
        <time>2020-01-18T08:53:13Z</time>
      </trkpt>
      <trkpt lat="43.56409" lon="5.88686">
        <ele>437.44</ele>
        <time>2020-01-18T08:53:19Z</time>
      </trkpt>
      <trkpt lat="43.56428" lon="5.88677">
        <ele>437.96</ele>
        <time>2020-01-18T08:53:25Z</time>
      </trkpt>
      <trkpt lat="43.56446" lon="5.88672">
        <ele>437.68</ele>
        <time>2020-01-18T08:53:32Z</time>
      </trkpt>
      <trkpt lat="43.56458" lon="5.88654">
        <ele>434.85</ele>
        <time>2020-01-18T08:53:41Z</time>
      </trkpt>
      <trkpt lat="43.56455" lon="5.88629">
        <ele>433.47</ele>
        <time>2020-01-18T08:53:49Z</time>
      </trkpt>
      <trkpt lat="43.56454" lon="5.88602">
        <ele>435.48</ele>
        <time>2020-01-18T08:53:57Z</time>
      </trkpt>
      <trkpt lat="43.56443" lon="5.8858">
        <ele>438.05</ele>
        <time>2020-01-18T08:54:05Z</time>
      </trkpt>
      <trkpt lat="43.56434" lon="5.88556">
        <ele>440.88</ele>
        <time>2020-01-18T08:54:14Z</time>
      </trkpt>
      <trkpt lat="43.56423" lon="5.88533">
        <ele>442.24</ele>
        <time>2020-01-18T08:54:22Z</time>
      </trkpt>
      <trkpt lat="43.56424" lon="5.88505">
        <ele>442.94</ele>
        <time>2020-01-18T08:54:27Z</time>
      </trkpt>
      <trkpt lat="43.56415" lon="5.88483">
        <ele>444.5</ele>
        <time>2020-01-18T08:54:35Z</time>
      </trkpt>
      <trkpt lat="43.56413" lon="5.88457">
        <ele>447.65</ele>
        <time>2020-01-18T08:54:42Z</time>
      </trkpt>
      <trkpt lat="43.5641" lon="5.88432">
        <ele>452.32</ele>
        <time>2020-01-18T08:54:52Z</time>
      </trkpt>
      <trkpt lat="43.5642" lon="5.8841">
        <ele>455.55</ele>
        <time>2020-01-18T08:55:00Z</time>
      </trkpt>
      <trkpt lat="43.56423" lon="5.88383">
        <ele>458.97</ele>
        <time>2020-01-18T08:55:08Z</time>
      </trkpt>
      <trkpt lat="43.56431" lon="5.88358">
        <ele>460.67</ele>
        <time>2020-01-18T08:55:14Z</time>
      </trkpt>
      <trkpt lat="43.56432" lon="5.88333">
        <ele>467.01</ele>
        <time>2020-01-18T08:55:26Z</time>
      </trkpt>
      <trkpt lat="43.5643" lon="5.88308">
        <ele>467.62</ele>
        <time>2020-01-18T08:55:40Z</time>
      </trkpt>
      <trkpt lat="43.56438" lon="5.88285">
        <ele>468.64</ele>
        <time>2020-01-18T08:55:47Z</time>
      </trkpt>
      <trkpt lat="43.56427" lon="5.88266">
        <ele>469.18</ele>
        <time>2020-01-18T08:56:00Z</time>
      </trkpt>
      <trkpt lat="43.56445" lon="5.88235">
        <ele>465.09</ele>
        <time>2020-01-18T08:56:07Z</time>
      </trkpt>
      <trkpt lat="43.56455" lon="5.88211">
        <ele>461.31</ele>
        <time>2020-01-18T08:56:12Z</time>
      </trkpt>
      <trkpt lat="43.56449" lon="5.88186">
        <ele>455.92</ele>
        <time>2020-01-18T08:56:18Z</time>
      </trkpt>
      <trkpt lat="43.5645" lon="5.88157">
        <ele>452.39</ele>
        <time>2020-01-18T08:56:25Z</time>
      </trkpt>
      <trkpt lat="43.56459" lon="5.88134">
        <ele>450.75</ele>
        <time>2020-01-18T08:56:31Z</time>
      </trkpt>
      <trkpt lat="43.56464" lon="5.88104">
        <ele>441.98</ele>
        <time>2020-01-18T08:56:36Z</time>
      </trkpt>
      <trkpt lat="43.56479" lon="5.88086">
        <ele>436.7</ele>
        <time>2020-01-18T08:56:42Z</time>
      </trkpt>
      <trkpt lat="43.56488" lon="5.88065">
        <ele>432.52</ele>
        <time>2020-01-18T08:56:51Z</time>
      </trkpt>
      <trkpt lat="43.56505" lon="5.88054">
        <ele>430.25</ele>
        <time>2020-01-18T08:57:01Z</time>
      </trkpt>
      <trkpt lat="43.56524" lon="5.8805">
        <ele>432.01</ele>
        <time>2020-01-18T08:57:11Z</time>
      </trkpt>
      <trkpt lat="43.56543" lon="5.88048">
        <ele>436.84</ele>
        <time>2020-01-18T08:57:22Z</time>
      </trkpt>
      <trkpt lat="43.5656" lon="5.88056">
        <ele>442.42</ele>
        <time>2020-01-18T08:57:34Z</time>
      </trkpt>
      <trkpt lat="43.56554" lon="5.88082">
        <ele>449.46</ele>
        <time>2020-01-18T08:57:51Z</time>
      </trkpt>
      <trkpt lat="43.56561" lon="5.88107">
        <ele>453.01</ele>
        <time>2020-01-18T08:58:00Z</time>
      </trkpt>
      <trkpt lat="43.56567" lon="5.8813">
        <ele>452.91</ele>
        <time>2020-01-18T08:58:06Z</time>
      </trkpt>
      <trkpt lat="43.56576" lon="5.88153">
        <ele>450.53</ele>
        <time>2020-01-18T08:58:10Z</time>
      </trkpt>
      <trkpt lat="43.56589" lon="5.8817">
        <ele>447.86</ele>
        <time>2020-01-18T08:58:18Z</time>
      </trkpt>
      <trkpt lat="43.56605" lon="5.88185">
        <ele>445.83</ele>
        <time>2020-01-18T08:58:28Z</time>
      </trkpt>
      <trkpt lat="43.56623" lon="5.88184">
        <ele>446.37</ele>
        <time>2020-01-18T08:58:36Z</time>
      </trkpt>
      <trkpt lat="43.56625" lon="5.8821">
        <ele>449.92</ele>
        <time>2020-01-18T08:58:51Z</time>
      </trkpt>
      <trkpt lat="43.56623" lon="5.88238">
        <ele>451.9</ele>
        <time>2020-01-18T08:58:58Z</time>
      </trkpt>
      <trkpt lat="43.56621" lon="5.88265">
        <ele>451.58</ele>
        <time>2020-01-18T08:59:03Z</time>
      </trkpt>
      <trkpt lat="43.56615" lon="5.88292">
        <ele>450.92</ele>
        <time>2020-01-18T08:59:09Z</time>
      </trkpt>
      <trkpt lat="43.56614" lon="5.8832">
        <ele>451.94</ele>
        <time>2020-01-18T08:59:15Z</time>
      </trkpt>
      <trkpt lat="43.56613" lon="5.88346">
        <ele>452.74</ele>
        <time>2020-01-18T08:59:21Z</time>
      </trkpt>
      <trkpt lat="43.56612" lon="5.88375">
        <ele>453.54</ele>
        <time>2020-01-18T08:59:27Z</time>
      </trkpt>
      <trkpt lat="43.56614" lon="5.88405">
        <ele>452.25</ele>
        <time>2020-01-18T08:59:33Z</time>
      </trkpt>
      <trkpt lat="43.56625" lon="5.88426">
        <ele>450.23</ele>
        <time>2020-01-18T08:59:38Z</time>
      </trkpt>
      <trkpt lat="43.56628" lon="5.88451">
        <ele>447.11</ele>
        <time>2020-01-18T08:59:45Z</time>
      </trkpt>
      <trkpt lat="43.56621" lon="5.88478">
        <ele>444.18</ele>
        <time>2020-01-18T08:59:50Z</time>
      </trkpt>
      <trkpt lat="43.56619" lon="5.88503">
        <ele>442.73</ele>
        <time>2020-01-18T08:59:54Z</time>
      </trkpt>
      <trkpt lat="43.56622" lon="5.88533">
        <ele>441.95</ele>
        <time>2020-01-18T08:59:59Z</time>
      </trkpt>
      <trkpt lat="43.56639" lon="5.88554">
        <ele>437.78</ele>
        <time>2020-01-18T09:00:04Z</time>
      </trkpt>
      <trkpt lat="43.56658" lon="5.88564">
        <ele>435.06</ele>
        <time>2020-01-18T09:00:10Z</time>
      </trkpt>
      <trkpt lat="43.56676" lon="5.88569">
        <ele>433.91</ele>
        <time>2020-01-18T09:00:17Z</time>
      </trkpt>
      <trkpt lat="43.56694" lon="5.88565">
        <ele>434.02</ele>
        <time>2020-01-18T09:00:25Z</time>
      </trkpt>
      <trkpt lat="43.56716" lon="5.88557">
        <ele>433.66</ele>
        <time>2020-01-18T09:00:32Z</time>
      </trkpt>
      <trkpt lat="43.56735" lon="5.88548">
        <ele>431.35</ele>
        <time>2020-01-18T09:00:37Z</time>
      </trkpt>
      <trkpt lat="43.56754" lon="5.88542">
        <ele>430.93</ele>
        <time>2020-01-18T09:00:43Z</time>
      </trkpt>
      <trkpt lat="43.56773" lon="5.88532">
        <ele>431.98</ele>
        <time>2020-01-18T09:00:49Z</time>
      </trkpt>
      <trkpt lat="43.56792" lon="5.88523">
        <ele>432.82</ele>
        <time>2020-01-18T09:00:54Z</time>
      </trkpt>
      <trkpt lat="43.56809" lon="5.88513">
        <ele>432.85</ele>
        <time>2020-01-18T09:00:58Z</time>
      </trkpt>
      <trkpt lat="43.56827" lon="5.88509">
        <ele>434.69</ele>
        <time>2020-01-18T09:01:04Z</time>
      </trkpt>
      <trkpt lat="43.56845" lon="5.88501">
        <ele>434.92</ele>
        <time>2020-01-18T09:01:09Z</time>
      </trkpt>
      <trkpt lat="43.56861" lon="5.88491">
        <ele>433.86</ele>
        <time>2020-01-18T09:01:14Z</time>
      </trkpt>
      <trkpt lat="43.56879" lon="5.88479">
        <ele>433.56</ele>
        <time>2020-01-18T09:01:20Z</time>
      </trkpt>
      <trkpt lat="43.56892" lon="5.88459">
        <ele>430.45</ele>
        <time>2020-01-18T09:01:31Z</time>
      </trkpt>
      <trkpt lat="43.5689" lon="5.8843">
        <ele>431.82</ele>
        <time>2020-01-18T09:01:40Z</time>
      </trkpt>
      <trkpt lat="43.56885" lon="5.88404">
        <ele>434.29</ele>
        <time>2020-01-18T09:01:48Z</time>
      </trkpt>
      <trkpt lat="43.56872" lon="5.88382">
        <ele>437.06</ele>
        <time>2020-01-18T09:01:55Z</time>
      </trkpt>
      <trkpt lat="43.56856" lon="5.88368">
        <ele>438.11</ele>
        <time>2020-01-18T09:02:01Z</time>
      </trkpt>
      <trkpt lat="43.56851" lon="5.88343">
        <ele>440.37</ele>
        <time>2020-01-18T09:02:10Z</time>
      </trkpt>
      <trkpt lat="43.56844" lon="5.88318">
        <ele>444.35</ele>
        <time>2020-01-18T09:02:20Z</time>
      </trkpt>
      <trkpt lat="43.56837" lon="5.88296">
        <ele>448.74</ele>
        <time>2020-01-18T09:02:29Z</time>
      </trkpt>
      <trkpt lat="43.56833" lon="5.8827">
        <ele>453.7</ele>
        <time>2020-01-18T09:02:39Z</time>
      </trkpt>
      <trkpt lat="43.56835" lon="5.88244">
        <ele>458.42</ele>
        <time>2020-01-18T09:02:48Z</time>
      </trkpt>
      <trkpt lat="43.56833" lon="5.88217">
        <ele>463.18</ele>
        <time>2020-01-18T09:02:57Z</time>
      </trkpt>
      <trkpt lat="43.56828" lon="5.88192">
        <ele>466.87</ele>
        <time>2020-01-18T09:03:07Z</time>
      </trkpt>
      <trkpt lat="43.5683" lon="5.88164">
        <ele>470.03</ele>
        <time>2020-01-18T09:03:16Z</time>
      </trkpt>
      <trkpt lat="43.56847" lon="5.88135">
        <ele>468.58</ele>
        <time>2020-01-18T09:03:19Z</time>
      </trkpt>
      <trkpt lat="43.56845" lon="5.88109">
        <ele>468.67</ele>
        <time>2020-01-18T09:03:26Z</time>
      </trkpt>
      <trkpt lat="43.56839" lon="5.88081">
        <ele>469.27</ele>
        <time>2020-01-18T09:03:33Z</time>
      </trkpt>
      <trkpt lat="43.56828" lon="5.8806">
        <ele>467.19</ele>
        <time>2020-01-18T09:03:41Z</time>
      </trkpt>
      <trkpt lat="43.56811" lon="5.88046">
        <ele>465.37</ele>
        <time>2020-01-18T09:03:47Z</time>
      </trkpt>
      <trkpt lat="43.56799" lon="5.88025">
        <ele>463.25</ele>
        <time>2020-01-18T09:03:57Z</time>
      </trkpt>
      <trkpt lat="43.5679" lon="5.88003">
        <ele>457.91</ele>
        <time>2020-01-18T09:04:15Z</time>
      </trkpt>
      <trkpt lat="43.56781" lon="5.87981">
        <ele>453.82</ele>
        <time>2020-01-18T09:04:28Z</time>
      </trkpt>
      <trkpt lat="43.56773" lon="5.87958">
        <ele>454.67</ele>
        <time>2020-01-18T09:04:38Z</time>
      </trkpt>
      <trkpt lat="43.56774" lon="5.87932">
        <ele>455.84</ele>
        <time>2020-01-18T09:04:52Z</time>
      </trkpt>
      <trkpt lat="43.56772" lon="5.87907">
        <ele>458.39</ele>
        <time>2020-01-18T09:05:03Z</time>
      </trkpt>
      <trkpt lat="43.5677" lon="5.87879">
        <ele>460.51</ele>
        <time>2020-01-18T09:05:13Z</time>
      </trkpt>
      <trkpt lat="43.5677" lon="5.87853">
        <ele>461.72</ele>
        <time>2020-01-18T09:05:23Z</time>
      </trkpt>
      <trkpt lat="43.56753" lon="5.87843">
        <ele>446.07</ele>
        <time>2020-01-18T09:07:26Z</time>
      </trkpt>
      <trkpt lat="43.56739" lon="5.87823">
        <ele>438.83</ele>
        <time>2020-01-18T09:09:57Z</time>
      </trkpt>
      <trkpt lat="43.5672" lon="5.87818">
        <ele>438.02</ele>
        <time>2020-01-18T09:10:02Z</time>
      </trkpt>
      <trkpt lat="43.56699" lon="5.87812">
        <ele>437.5</ele>
        <time>2020-01-18T09:10:07Z</time>
      </trkpt>
      <trkpt lat="43.56682" lon="5.87801">
        <ele>435.54</ele>
        <time>2020-01-18T09:10:12Z</time>
      </trkpt>
      <trkpt lat="43.56664" lon="5.87794">
        <ele>433.79</ele>
        <time>2020-01-18T09:10:17Z</time>
      </trkpt>
      <trkpt lat="43.56654" lon="5.87771">
        <ele>432.21</ele>
        <time>2020-01-18T09:10:22Z</time>
      </trkpt>
      <trkpt lat="43.5664" lon="5.87752">
        <ele>432.27</ele>
        <time>2020-01-18T09:10:26Z</time>
      </trkpt>
      <trkpt lat="43.56628" lon="5.87733">
        <ele>432.05</ele>
        <time>2020-01-18T09:10:30Z</time>
      </trkpt>
      <trkpt lat="43.5661" lon="5.87714">
        <ele>431.29</ele>
        <time>2020-01-18T09:10:34Z</time>
      </trkpt>
      <trkpt lat="43.5659" lon="5.87702">
        <ele>429.32</ele>
        <time>2020-01-18T09:10:38Z</time>
      </trkpt>
      <trkpt lat="43.56569" lon="5.87695">
        <ele>427.97</ele>
        <time>2020-01-18T09:10:43Z</time>
      </trkpt>
      <trkpt lat="43.56548" lon="5.87692">
        <ele>425.67</ele>
        <time>2020-01-18T09:10:48Z</time>
      </trkpt>
      <trkpt lat="43.56529" lon="5.87691">
        <ele>424.75</ele>
        <time>2020-01-18T09:10:53Z</time>
      </trkpt>
      <trkpt lat="43.5651" lon="5.87691">
        <ele>423.68</ele>
        <time>2020-01-18T09:10:59Z</time>
      </trkpt>
      <trkpt lat="43.56492" lon="5.87684">
        <ele>424.44</ele>
        <time>2020-01-18T09:11:06Z</time>
      </trkpt>
      <trkpt lat="43.5647" lon="5.87685">
        <ele>425.16</ele>
        <time>2020-01-18T09:11:12Z</time>
      </trkpt>
      <trkpt lat="43.56452" lon="5.87678">
        <ele>424.72</ele>
        <time>2020-01-18T09:11:17Z</time>
      </trkpt>
      <trkpt lat="43.56438" lon="5.87663">
        <ele>424.24</ele>
        <time>2020-01-18T09:11:25Z</time>
      </trkpt>
      <trkpt lat="43.56438" lon="5.87637">
        <ele>428.02</ele>
        <time>2020-01-18T09:11:32Z</time>
      </trkpt>
      <trkpt lat="43.56434" lon="5.8761">
        <ele>432.61</ele>
        <time>2020-01-18T09:11:40Z</time>
      </trkpt>
      <trkpt lat="43.56427" lon="5.87585">
        <ele>436.85</ele>
        <time>2020-01-18T09:11:48Z</time>
      </trkpt>
      <trkpt lat="43.56431" lon="5.87558">
        <ele>439.59</ele>
        <time>2020-01-18T09:11:55Z</time>
      </trkpt>
      <trkpt lat="43.56427" lon="5.87529">
        <ele>430.09</ele>
        <time>2020-01-18T09:12:23Z</time>
      </trkpt>
      <trkpt lat="43.56445" lon="5.87529">
        <ele>431.85</ele>
        <time>2020-01-18T09:12:34Z</time>
      </trkpt>
      <trkpt lat="43.56466" lon="5.87525">
        <ele>437.86</ele>
        <time>2020-01-18T09:12:43Z</time>
      </trkpt>
      <trkpt lat="43.56485" lon="5.87518">
        <ele>444.39</ele>
        <time>2020-01-18T09:12:51Z</time>
      </trkpt>
      <trkpt lat="43.56504" lon="5.87516">
        <ele>450.28</ele>
        <time>2020-01-18T09:12:57Z</time>
      </trkpt>
      <trkpt lat="43.56523" lon="5.8752">
        <ele>449.45</ele>
        <time>2020-01-18T09:13:03Z</time>
      </trkpt>
      <trkpt lat="43.56543" lon="5.8752">
        <ele>451.83</ele>
        <time>2020-01-18T09:13:10Z</time>
      </trkpt>
      <trkpt lat="43.56543" lon="5.87546">
        <ele>455.24</ele>
        <time>2020-01-18T09:13:40Z</time>
      </trkpt>
      <trkpt lat="43.56529" lon="5.87566">
        <ele>456.42</ele>
        <time>2020-01-18T09:13:46Z</time>
      </trkpt>
      <trkpt lat="43.56518" lon="5.87589">
        <ele>457.36</ele>
        <time>2020-01-18T09:13:51Z</time>
      </trkpt>
      <trkpt lat="43.56515" lon="5.87615">
        <ele>458.37</ele>
        <time>2020-01-18T09:13:56Z</time>
      </trkpt>
      <trkpt lat="43.56519" lon="5.87642">
        <ele>459.44</ele>
        <time>2020-01-18T09:14:01Z</time>
      </trkpt>
      <trkpt lat="43.5652" lon="5.87669">
        <ele>458.91</ele>
        <time>2020-01-18T09:14:07Z</time>
      </trkpt>
      <trkpt lat="43.56507" lon="5.87687">
        <ele>453.91</ele>
        <time>2020-01-18T09:14:13Z</time>
      </trkpt>
      <trkpt lat="43.56487" lon="5.87686">
        <ele>447.52</ele>
        <time>2020-01-18T09:14:21Z</time>
      </trkpt>
      <trkpt lat="43.56468" lon="5.87686">
        <ele>445.26</ele>
        <time>2020-01-18T09:14:26Z</time>
      </trkpt>
      <trkpt lat="43.5645" lon="5.87679">
        <ele>439.26</ele>
        <time>2020-01-18T09:14:32Z</time>
      </trkpt>
      <trkpt lat="43.5644" lon="5.87655">
        <ele>438.39</ele>
        <time>2020-01-18T09:14:40Z</time>
      </trkpt>
      <trkpt lat="43.5644" lon="5.8763">
        <ele>439.46</ele>
        <time>2020-01-18T09:14:47Z</time>
      </trkpt>
      <trkpt lat="43.5644" lon="5.87605">
        <ele>441.63</ele>
        <time>2020-01-18T09:14:53Z</time>
      </trkpt>
      <trkpt lat="43.56433" lon="5.8758">
        <ele>443.67</ele>
        <time>2020-01-18T09:15:00Z</time>
      </trkpt>
      <trkpt lat="43.56437" lon="5.87555">
        <ele>445.06</ele>
        <time>2020-01-18T09:15:05Z</time>
      </trkpt>
      <trkpt lat="43.56447" lon="5.87526">
        <ele>445.34</ele>
        <time>2020-01-18T09:15:09Z</time>
      </trkpt>
      <trkpt lat="43.56429" lon="5.87514">
        <ele>444.52</ele>
        <time>2020-01-18T09:15:12Z</time>
      </trkpt>
      <trkpt lat="43.56411" lon="5.87517">
        <ele>445.18</ele>
        <time>2020-01-18T09:15:16Z</time>
      </trkpt>
      <trkpt lat="43.56392" lon="5.87514">
        <ele>441.47</ele>
        <time>2020-01-18T09:15:23Z</time>
      </trkpt>
      <trkpt lat="43.56374" lon="5.87506">
        <ele>439.9</ele>
        <time>2020-01-18T09:15:34Z</time>
      </trkpt>
      <trkpt lat="43.56356" lon="5.87497">
        <ele>435.75</ele>
        <time>2020-01-18T09:15:52Z</time>
      </trkpt>
      <trkpt lat="43.56344" lon="5.87478">
        <ele>433.63</ele>
        <time>2020-01-18T09:16:05Z</time>
      </trkpt>
      <trkpt lat="43.56327" lon="5.87461">
        <ele>433.08</ele>
        <time>2020-01-18T09:16:17Z</time>
      </trkpt>
      <trkpt lat="43.5631" lon="5.87445">
        <ele>432.34</ele>
        <time>2020-01-18T09:16:25Z</time>
      </trkpt>
      <trkpt lat="43.56297" lon="5.87427">
        <ele>430.87</ele>
        <time>2020-01-18T09:16:47Z</time>
      </trkpt>
      <trkpt lat="43.56289" lon="5.87405">
        <ele>431.34</ele>
        <time>2020-01-18T09:16:56Z</time>
      </trkpt>
      <trkpt lat="43.5628" lon="5.87383">
        <ele>431.17</ele>
        <time>2020-01-18T09:17:01Z</time>
      </trkpt>
      <trkpt lat="43.56282" lon="5.87357">
        <ele>430.16</ele>
        <time>2020-01-18T09:17:06Z</time>
      </trkpt>
      <trkpt lat="43.56269" lon="5.87336">
        <ele>427.86</ele>
        <time>2020-01-18T09:17:11Z</time>
      </trkpt>
      <trkpt lat="43.56257" lon="5.87317">
        <ele>425.22</ele>
        <time>2020-01-18T09:17:15Z</time>
      </trkpt>
      <trkpt lat="43.56245" lon="5.87293">
        <ele>424.15</ele>
        <time>2020-01-18T09:17:20Z</time>
      </trkpt>
      <trkpt lat="43.56229" lon="5.87275">
        <ele>422.95</ele>
        <time>2020-01-18T09:17:24Z</time>
      </trkpt>
      <trkpt lat="43.56214" lon="5.87261">
        <ele>422.7</ele>
        <time>2020-01-18T09:17:27Z</time>
      </trkpt>
      <trkpt lat="43.56203" lon="5.87239">
        <ele>423.66</ele>
        <time>2020-01-18T09:17:31Z</time>
      </trkpt>
      <trkpt lat="43.56196" lon="5.87212">
        <ele>425.13</ele>
        <time>2020-01-18T09:17:36Z</time>
      </trkpt>
      <trkpt lat="43.56188" lon="5.87187">
        <ele>428.09</ele>
        <time>2020-01-18T09:17:42Z</time>
      </trkpt>
      <trkpt lat="43.5617" lon="5.87171">
        <ele>424.86</ele>
        <time>2020-01-18T09:17:48Z</time>
      </trkpt>
      <trkpt lat="43.56155" lon="5.87156">
        <ele>421.66</ele>
        <time>2020-01-18T09:17:52Z</time>
      </trkpt>
      <trkpt lat="43.56137" lon="5.87142">
        <ele>419.64</ele>
        <time>2020-01-18T09:17:56Z</time>
      </trkpt>
      <trkpt lat="43.56122" lon="5.87127">
        <ele>417.62</ele>
        <time>2020-01-18T09:18:00Z</time>
      </trkpt>
      <trkpt lat="43.56109" lon="5.87106">
        <ele>415.23</ele>
        <time>2020-01-18T09:18:05Z</time>
      </trkpt>
      <trkpt lat="43.5609" lon="5.87091">
        <ele>411.3</ele>
        <time>2020-01-18T09:18:09Z</time>
      </trkpt>
      <trkpt lat="43.56072" lon="5.87094">
        <ele>408.97</ele>
        <time>2020-01-18T09:18:17Z</time>
      </trkpt>
      <trkpt lat="43.56054" lon="5.87092">
        <ele>409.99</ele>
        <time>2020-01-18T09:19:14Z</time>
      </trkpt>
      <trkpt lat="43.56035" lon="5.87091">
        <ele>409.09</ele>
        <time>2020-01-18T09:19:20Z</time>
      </trkpt>
      <trkpt lat="43.56017" lon="5.87086">
        <ele>408.74</ele>
        <time>2020-01-18T09:19:26Z</time>
      </trkpt>
      <trkpt lat="43.55997" lon="5.87088">
        <ele>408.67</ele>
        <time>2020-01-18T09:19:33Z</time>
      </trkpt>
      <trkpt lat="43.55978" lon="5.87087">
        <ele>408.77</ele>
        <time>2020-01-18T09:19:40Z</time>
      </trkpt>
      <trkpt lat="43.55961" lon="5.87104">
        <ele>410.5</ele>
        <time>2020-01-18T09:19:47Z</time>
      </trkpt>
      <trkpt lat="43.55948" lon="5.87126">
        <ele>411.46</ele>
        <time>2020-01-18T09:19:53Z</time>
      </trkpt>
      <trkpt lat="43.55934" lon="5.87144">
        <ele>412.68</ele>
        <time>2020-01-18T09:19:58Z</time>
      </trkpt>
      <trkpt lat="43.55922" lon="5.87162">
        <ele>413.03</ele>
        <time>2020-01-18T09:20:03Z</time>
      </trkpt>
      <trkpt lat="43.55905" lon="5.87174">
        <ele>411.97</ele>
        <time>2020-01-18T09:20:08Z</time>
      </trkpt>
      <trkpt lat="43.55889" lon="5.87195">
        <ele>407.95</ele>
        <time>2020-01-18T09:23:03Z</time>
      </trkpt>
      <trkpt lat="43.55907" lon="5.87199">
        <ele>409.04</ele>
        <time>2020-01-18T09:23:55Z</time>
      </trkpt>
      <trkpt lat="43.55917" lon="5.87177">
        <ele>410.83</ele>
        <time>2020-01-18T09:24:03Z</time>
      </trkpt>
      <trkpt lat="43.5593" lon="5.87158">
        <ele>412.79</ele>
        <time>2020-01-18T09:24:10Z</time>
      </trkpt>
      <trkpt lat="43.55945" lon="5.87139">
        <ele>413.76</ele>
        <time>2020-01-18T09:24:17Z</time>
      </trkpt>
      <trkpt lat="43.55957" lon="5.87119">
        <ele>413.16</ele>
        <time>2020-01-18T09:24:23Z</time>
      </trkpt>
      <trkpt lat="43.55971" lon="5.871">
        <ele>414.45</ele>
        <time>2020-01-18T09:24:31Z</time>
      </trkpt>
      <trkpt lat="43.55991" lon="5.87095">
        <ele>415.72</ele>
        <time>2020-01-18T09:24:38Z</time>
      </trkpt>
      <trkpt lat="43.56012" lon="5.8709">
        <ele>415.23</ele>
        <time>2020-01-18T09:24:43Z</time>
      </trkpt>
      <trkpt lat="43.56033" lon="5.87095">
        <ele>414.43</ele>
        <time>2020-01-18T09:24:48Z</time>
      </trkpt>
      <trkpt lat="43.56052" lon="5.87096">
        <ele>413.04</ele>
        <time>2020-01-18T09:24:54Z</time>
      </trkpt>
      <trkpt lat="43.56069" lon="5.87106">
        <ele>415.01</ele>
        <time>2020-01-18T09:25:02Z</time>
      </trkpt>
      <trkpt lat="43.56069" lon="5.87136">
        <ele>414.81</ele>
        <time>2020-01-18T09:25:09Z</time>
      </trkpt>
      <trkpt lat="43.56066" lon="5.87161">
        <ele>413.12</ele>
        <time>2020-01-18T09:25:13Z</time>
      </trkpt>
      <trkpt lat="43.56058" lon="5.87184">
        <ele>412.1</ele>
        <time>2020-01-18T09:25:17Z</time>
      </trkpt>
      <trkpt lat="43.56039" lon="5.87205">
        <ele>411.5</ele>
        <time>2020-01-18T09:25:21Z</time>
      </trkpt>
      <trkpt lat="43.56021" lon="5.87225">
        <ele>411.29</ele>
        <time>2020-01-18T09:25:25Z</time>
      </trkpt>
      <trkpt lat="43.56001" lon="5.87242">
        <ele>411.46</ele>
        <time>2020-01-18T09:25:29Z</time>
      </trkpt>
      <trkpt lat="43.5598" lon="5.87253">
        <ele>411.85</ele>
        <time>2020-01-18T09:25:33Z</time>
      </trkpt>
      <trkpt lat="43.55967" lon="5.87271">
        <ele>411.81</ele>
        <time>2020-01-18T09:25:37Z</time>
      </trkpt>
      <trkpt lat="43.55953" lon="5.87289">
        <ele>411.45</ele>
        <time>2020-01-18T09:25:41Z</time>
      </trkpt>
      <trkpt lat="43.55938" lon="5.87306">
        <ele>410.93</ele>
        <time>2020-01-18T09:25:45Z</time>
      </trkpt>
      <trkpt lat="43.55915" lon="5.87316">
        <ele>410.41</ele>
        <time>2020-01-18T09:25:49Z</time>
      </trkpt>
      <trkpt lat="43.55897" lon="5.87327">
        <ele>409.76</ele>
        <time>2020-01-18T09:25:52Z</time>
      </trkpt>
      <trkpt lat="43.55879" lon="5.87342">
        <ele>408.64</ele>
        <time>2020-01-18T09:25:56Z</time>
      </trkpt>
      <trkpt lat="43.55862" lon="5.87363">
        <ele>407.42</ele>
        <time>2020-01-18T09:26:00Z</time>
      </trkpt>
      <trkpt lat="43.55846" lon="5.87389">
        <ele>406.72</ele>
        <time>2020-01-18T09:26:04Z</time>
      </trkpt>
      <trkpt lat="43.55827" lon="5.87405">
        <ele>406.37</ele>
        <time>2020-01-18T09:26:08Z</time>
      </trkpt>
      <trkpt lat="43.55806" lon="5.87414">
        <ele>406.27</ele>
        <time>2020-01-18T09:26:12Z</time>
      </trkpt>
      <trkpt lat="43.55784" lon="5.8742">
        <ele>405.71</ele>
        <time>2020-01-18T09:26:16Z</time>
      </trkpt>
      <trkpt lat="43.55766" lon="5.87429">
        <ele>404.5</ele>
        <time>2020-01-18T09:26:20Z</time>
      </trkpt>
      <trkpt lat="43.55748" lon="5.87421">
        <ele>401.95</ele>
        <time>2020-01-18T09:26:25Z</time>
      </trkpt>
      <trkpt lat="43.55729" lon="5.87419">
        <ele>399.15</ele>
        <time>2020-01-18T09:26:29Z</time>
      </trkpt>
      <trkpt lat="43.55709" lon="5.87426">
        <ele>398.3</ele>
        <time>2020-01-18T09:26:33Z</time>
      </trkpt>
      <trkpt lat="43.5569" lon="5.87434">
        <ele>397.29</ele>
        <time>2020-01-18T09:26:37Z</time>
      </trkpt>
      <trkpt lat="43.55669" lon="5.87446">
        <ele>396.67</ele>
        <time>2020-01-18T09:26:42Z</time>
      </trkpt>
      <trkpt lat="43.5566" lon="5.87468">
        <ele>395.02</ele>
        <time>2020-01-18T09:26:48Z</time>
      </trkpt>
      <trkpt lat="43.55657" lon="5.87496">
        <ele>393.45</ele>
        <time>2020-01-18T09:26:54Z</time>
      </trkpt>
      <trkpt lat="43.55646" lon="5.87519">
        <ele>391.15</ele>
        <time>2020-01-18T09:26:59Z</time>
      </trkpt>
      <trkpt lat="43.55634" lon="5.87541">
        <ele>388.87</ele>
        <time>2020-01-18T09:27:04Z</time>
      </trkpt>
      <trkpt lat="43.55628" lon="5.87571">
        <ele>374.43</ele>
        <time>2020-01-18T09:31:08Z</time>
      </trkpt>
      <trkpt lat="43.55612" lon="5.87558">
        <ele>370.82</ele>
        <time>2020-01-18T09:31:29Z</time>
      </trkpt>
      <trkpt lat="43.55605" lon="5.87533">
        <ele>372.3</ele>
        <time>2020-01-18T09:31:38Z</time>
      </trkpt>
      <trkpt lat="43.55594" lon="5.87512">
        <ele>371.86</ele>
        <time>2020-01-18T09:31:44Z</time>
      </trkpt>
      <trkpt lat="43.55587" lon="5.87488">
        <ele>368.42</ele>
        <time>2020-01-18T09:31:52Z</time>
      </trkpt>
      <trkpt lat="43.55569" lon="5.87484">
        <ele>366.47</ele>
        <time>2020-01-18T09:32:03Z</time>
      </trkpt>
      <trkpt lat="43.5555" lon="5.87489">
        <ele>367.08</ele>
        <time>2020-01-18T09:32:13Z</time>
      </trkpt>
      <trkpt lat="43.5553" lon="5.87495">
        <ele>366.47</ele>
        <time>2020-01-18T09:32:23Z</time>
      </trkpt>
      <trkpt lat="43.55511" lon="5.87495">
        <ele>366.61</ele>
        <time>2020-01-18T09:32:32Z</time>
      </trkpt>
      <trkpt lat="43.55497" lon="5.87478">
        <ele>366.31</ele>
        <time>2020-01-18T09:32:43Z</time>
      </trkpt>
      <trkpt lat="43.55479" lon="5.8747">
        <ele>367.09</ele>
        <time>2020-01-18T09:32:52Z</time>
      </trkpt>
      <trkpt lat="43.55464" lon="5.87457">
        <ele>367.14</ele>
        <time>2020-01-18T09:33:01Z</time>
      </trkpt>
      <trkpt lat="43.55447" lon="5.8744">
        <ele>367.13</ele>
        <time>2020-01-18T09:33:11Z</time>
      </trkpt>
      <trkpt lat="43.55426" lon="5.8744">
        <ele>367.66</ele>
        <time>2020-01-18T09:33:17Z</time>
      </trkpt>
      <trkpt lat="43.55408" lon="5.87434">
        <ele>366.8</ele>
        <time>2020-01-18T09:33:25Z</time>
      </trkpt>
      <trkpt lat="43.55388" lon="5.87428">
        <ele>369</ele>
        <time>2020-01-18T09:33:31Z</time>
      </trkpt>
      <trkpt lat="43.55371" lon="5.8742">
        <ele>369.43</ele>
        <time>2020-01-18T09:33:39Z</time>
      </trkpt>
      <trkpt lat="43.5535" lon="5.87414">
        <ele>371.11</ele>
        <time>2020-01-18T09:33:46Z</time>
      </trkpt>
      <trkpt lat="43.55331" lon="5.87405">
        <ele>370.46</ele>
        <time>2020-01-18T09:33:52Z</time>
      </trkpt>
      <trkpt lat="43.55314" lon="5.87394">
        <ele>369.3</ele>
        <time>2020-01-18T09:34:00Z</time>
      </trkpt>
      <trkpt lat="43.55304" lon="5.87372">
        <ele>370.57</ele>
        <time>2020-01-18T09:34:10Z</time>
      </trkpt>
      <trkpt lat="43.55286" lon="5.87373">
        <ele>371.89</ele>
        <time>2020-01-18T09:34:18Z</time>
      </trkpt>
      <trkpt lat="43.55269" lon="5.87384">
        <ele>372.99</ele>
        <time>2020-01-18T09:34:33Z</time>
      </trkpt>
      <trkpt lat="43.55258" lon="5.87362">
        <ele>373.52</ele>
        <time>2020-01-18T09:34:44Z</time>
      </trkpt>
      <trkpt lat="43.55247" lon="5.87342">
        <ele>376.27</ele>
        <time>2020-01-18T09:35:02Z</time>
      </trkpt>
      <trkpt lat="43.55241" lon="5.87317">
        <ele>378.82</ele>
        <time>2020-01-18T09:35:32Z</time>
      </trkpt>
      <trkpt lat="43.55233" lon="5.87293">
        <ele>379.86</ele>
        <time>2020-01-18T09:35:45Z</time>
      </trkpt>
      <trkpt lat="43.55221" lon="5.87274">
        <ele>380.62</ele>
        <time>2020-01-18T09:35:56Z</time>
      </trkpt>
      <trkpt lat="43.55209" lon="5.87255">
        <ele>380.02</ele>
        <time>2020-01-18T09:36:05Z</time>
      </trkpt>
      <trkpt lat="43.55191" lon="5.87244">
        <ele>379.83</ele>
        <time>2020-01-18T09:36:13Z</time>
      </trkpt>
      <trkpt lat="43.55174" lon="5.87233">
        <ele>380.13</ele>
        <time>2020-01-18T09:36:20Z</time>
      </trkpt>
      <trkpt lat="43.55156" lon="5.87224">
        <ele>380.88</ele>
        <time>2020-01-18T09:36:27Z</time>
      </trkpt>
      <trkpt lat="43.55139" lon="5.87212">
        <ele>381.36</ele>
        <time>2020-01-18T09:36:35Z</time>
      </trkpt>
      <trkpt lat="43.55121" lon="5.87212">
        <ele>382.62</ele>
        <time>2020-01-18T09:36:42Z</time>
      </trkpt>
      <trkpt lat="43.55103" lon="5.87216">
        <ele>384</ele>
        <time>2020-01-18T09:36:49Z</time>
      </trkpt>
      <trkpt lat="43.55084" lon="5.8721">
        <ele>384.96</ele>
        <time>2020-01-18T09:36:59Z</time>
      </trkpt>
      <trkpt lat="43.55067" lon="5.87197">
        <ele>384.17</ele>
        <time>2020-01-18T09:37:07Z</time>
      </trkpt>
      <trkpt lat="43.55048" lon="5.87189">
        <ele>384.17</ele>
        <time>2020-01-18T09:37:16Z</time>
      </trkpt>
      <trkpt lat="43.5503" lon="5.87186">
        <ele>384.9</ele>
        <time>2020-01-18T09:37:24Z</time>
      </trkpt>
      <trkpt lat="43.55011" lon="5.87186">
        <ele>386.06</ele>
        <time>2020-01-18T09:37:32Z</time>
      </trkpt>
      <trkpt lat="43.54993" lon="5.87195">
        <ele>388.13</ele>
        <time>2020-01-18T09:37:39Z</time>
      </trkpt>
      <trkpt lat="43.54976" lon="5.87207">
        <ele>391.26</ele>
        <time>2020-01-18T09:37:47Z</time>
      </trkpt>
      <trkpt lat="43.54961" lon="5.87227">
        <ele>394.77</ele>
        <time>2020-01-18T09:37:55Z</time>
      </trkpt>
      <trkpt lat="43.54946" lon="5.87244">
        <ele>397.59</ele>
        <time>2020-01-18T09:38:03Z</time>
      </trkpt>
      <trkpt lat="43.54928" lon="5.87253">
        <ele>401.27</ele>
        <time>2020-01-18T09:38:12Z</time>
      </trkpt>
      <trkpt lat="43.54909" lon="5.87261">
        <ele>404.41</ele>
        <time>2020-01-18T09:38:22Z</time>
      </trkpt>
      <trkpt lat="43.54891" lon="5.87267">
        <ele>405.81</ele>
        <time>2020-01-18T09:38:31Z</time>
      </trkpt>
      <trkpt lat="43.54871" lon="5.87267">
        <ele>407.24</ele>
        <time>2020-01-18T09:38:39Z</time>
      </trkpt>
      <trkpt lat="43.54853" lon="5.87275">
        <ele>409.69</ele>
        <time>2020-01-18T09:38:46Z</time>
      </trkpt>
      <trkpt lat="43.54838" lon="5.87295">
        <ele>410.92</ele>
        <time>2020-01-18T09:38:53Z</time>
      </trkpt>
      <trkpt lat="43.54821" lon="5.87306">
        <ele>412.98</ele>
        <time>2020-01-18T09:39:01Z</time>
      </trkpt>
      <trkpt lat="43.54804" lon="5.87315">
        <ele>415.35</ele>
        <time>2020-01-18T09:39:09Z</time>
      </trkpt>
      <trkpt lat="43.54787" lon="5.87299">
        <ele>416.29</ele>
        <time>2020-01-18T09:39:22Z</time>
      </trkpt>
      <trkpt lat="43.54768" lon="5.87289">
        <ele>414.98</ele>
        <time>2020-01-18T09:39:32Z</time>
      </trkpt>
      <trkpt lat="43.54749" lon="5.87281">
        <ele>416.4</ele>
        <time>2020-01-18T09:39:41Z</time>
      </trkpt>
      <trkpt lat="43.54731" lon="5.87276">
        <ele>416.46</ele>
        <time>2020-01-18T09:39:48Z</time>
      </trkpt>
      <trkpt lat="43.54712" lon="5.87275">
        <ele>416.15</ele>
        <time>2020-01-18T09:39:54Z</time>
      </trkpt>
      <trkpt lat="43.54692" lon="5.87275">
        <ele>415.77</ele>
        <time>2020-01-18T09:40:02Z</time>
      </trkpt>
      <trkpt lat="43.54673" lon="5.87278">
        <ele>416.96</ele>
        <time>2020-01-18T09:40:10Z</time>
      </trkpt>
      <trkpt lat="43.54655" lon="5.87281">
        <ele>417.49</ele>
        <time>2020-01-18T09:40:19Z</time>
      </trkpt>
      <trkpt lat="43.54635" lon="5.87284">
        <ele>417.15</ele>
        <time>2020-01-18T09:40:28Z</time>
      </trkpt>
      <trkpt lat="43.54615" lon="5.87288">
        <ele>419.28</ele>
        <time>2020-01-18T09:40:36Z</time>
      </trkpt>
      <trkpt lat="43.54596" lon="5.87294">
        <ele>421.6</ele>
        <time>2020-01-18T09:40:46Z</time>
      </trkpt>
      <trkpt lat="43.54578" lon="5.87302">
        <ele>424.24</ele>
        <time>2020-01-18T09:40:56Z</time>
      </trkpt>
      <trkpt lat="43.5456" lon="5.8731">
        <ele>422.11</ele>
        <time>2020-01-18T09:41:08Z</time>
      </trkpt>
      <trkpt lat="43.54542" lon="5.87306">
        <ele>422.05</ele>
        <time>2020-01-18T09:41:17Z</time>
      </trkpt>
      <trkpt lat="43.54523" lon="5.87308">
        <ele>422.35</ele>
        <time>2020-01-18T09:41:28Z</time>
      </trkpt>
      <trkpt lat="43.54505" lon="5.87309">
        <ele>424.1</ele>
        <time>2020-01-18T09:41:40Z</time>
      </trkpt>
      <trkpt lat="43.54487" lon="5.87317">
        <ele>425.95</ele>
        <time>2020-01-18T09:41:48Z</time>
      </trkpt>
      <trkpt lat="43.54475" lon="5.87335">
        <ele>428.79</ele>
        <time>2020-01-18T09:41:57Z</time>
      </trkpt>
      <trkpt lat="43.54462" lon="5.87355">
        <ele>431.61</ele>
        <time>2020-01-18T09:42:07Z</time>
      </trkpt>
      <trkpt lat="43.54451" lon="5.87376">
        <ele>434.12</ele>
        <time>2020-01-18T09:42:19Z</time>
      </trkpt>
      <trkpt lat="43.54442" lon="5.87397">
        <ele>437.49</ele>
        <time>2020-01-18T09:42:33Z</time>
      </trkpt>
      <trkpt lat="43.54435" lon="5.87421">
        <ele>442.95</ele>
        <time>2020-01-18T09:42:47Z</time>
      </trkpt>
      <trkpt lat="43.5443" lon="5.87446">
        <ele>448.56</ele>
        <time>2020-01-18T09:42:59Z</time>
      </trkpt>
      <trkpt lat="43.54427" lon="5.8747">
        <ele>451.14</ele>
        <time>2020-01-18T09:43:09Z</time>
      </trkpt>
      <trkpt lat="43.54421" lon="5.87495">
        <ele>452.64</ele>
        <time>2020-01-18T09:43:19Z</time>
      </trkpt>
      <trkpt lat="43.54417" lon="5.8752">
        <ele>455.04</ele>
        <time>2020-01-18T09:43:30Z</time>
      </trkpt>
      <trkpt lat="43.54407" lon="5.87543">
        <ele>456.92</ele>
        <time>2020-01-18T09:43:41Z</time>
      </trkpt>
      <trkpt lat="43.5439" lon="5.87554">
        <ele>458.66</ele>
        <time>2020-01-18T09:43:51Z</time>
      </trkpt>
      <trkpt lat="43.54378" lon="5.87577">
        <ele>459.33</ele>
        <time>2020-01-18T09:43:59Z</time>
      </trkpt>
      <trkpt lat="43.54362" lon="5.87588">
        <ele>457.9</ele>
        <time>2020-01-18T09:44:08Z</time>
      </trkpt>
      <trkpt lat="43.54349" lon="5.87607">
        <ele>459.49</ele>
        <time>2020-01-18T09:44:15Z</time>
      </trkpt>
      <trkpt lat="43.5434" lon="5.87629">
        <ele>459.75</ele>
        <time>2020-01-18T09:44:22Z</time>
      </trkpt>
      <trkpt lat="43.54329" lon="5.87649">
        <ele>457.24</ele>
        <time>2020-01-18T09:48:08Z</time>
      </trkpt>
      <trkpt lat="43.54319" lon="5.87672">
        <ele>457.37</ele>
        <time>2020-01-18T09:48:18Z</time>
      </trkpt>
      <trkpt lat="43.54304" lon="5.87687">
        <ele>458.72</ele>
        <time>2020-01-18T09:48:27Z</time>
      </trkpt>
      <trkpt lat="43.54289" lon="5.87701">
        <ele>461.86</ele>
        <time>2020-01-18T09:48:35Z</time>
      </trkpt>
      <trkpt lat="43.54275" lon="5.87719">
        <ele>460.53</ele>
        <time>2020-01-18T09:48:43Z</time>
      </trkpt>
      <trkpt lat="43.5426" lon="5.87704">
        <ele>456.41</ele>
        <time>2020-01-18T09:48:54Z</time>
      </trkpt>
      <trkpt lat="43.54243" lon="5.87691">
        <ele>454.61</ele>
        <time>2020-01-18T09:49:03Z</time>
      </trkpt>
      <trkpt lat="43.54225" lon="5.87696">
        <ele>454.75</ele>
        <time>2020-01-18T09:49:09Z</time>
      </trkpt>
      <trkpt lat="43.54208" lon="5.87704">
        <ele>455.2</ele>
        <time>2020-01-18T09:49:15Z</time>
      </trkpt>
      <trkpt lat="43.54189" lon="5.87716">
        <ele>455.93</ele>
        <time>2020-01-18T09:49:22Z</time>
      </trkpt>
      <trkpt lat="43.54171" lon="5.87731">
        <ele>456.64</ele>
        <time>2020-01-18T09:49:28Z</time>
      </trkpt>
      <trkpt lat="43.54151" lon="5.8774">
        <ele>458.01</ele>
        <time>2020-01-18T09:49:34Z</time>
      </trkpt>
      <trkpt lat="43.54132" lon="5.87746">
        <ele>459.55</ele>
        <time>2020-01-18T09:49:39Z</time>
      </trkpt>
      <trkpt lat="43.54113" lon="5.87755">
        <ele>460.82</ele>
        <time>2020-01-18T09:49:44Z</time>
      </trkpt>
      <trkpt lat="43.54095" lon="5.87759">
        <ele>459.13</ele>
        <time>2020-01-18T09:49:51Z</time>
      </trkpt>
      <trkpt lat="43.54101" lon="5.87734">
        <ele>457.81</ele>
        <time>2020-01-18T09:49:58Z</time>
      </trkpt>
      <trkpt lat="43.54103" lon="5.87707">
        <ele>457.47</ele>
        <time>2020-01-18T09:50:04Z</time>
      </trkpt>
      <trkpt lat="43.54104" lon="5.87681">
        <ele>457.26</ele>
        <time>2020-01-18T09:50:10Z</time>
      </trkpt>
      <trkpt lat="43.541" lon="5.87656">
        <ele>458.51</ele>
        <time>2020-01-18T09:50:17Z</time>
      </trkpt>
      <trkpt lat="43.54087" lon="5.87634">
        <ele>457.05</ele>
        <time>2020-01-18T09:50:24Z</time>
      </trkpt>
      <trkpt lat="43.54084" lon="5.87605">
        <ele>455.95</ele>
        <time>2020-01-18T09:50:30Z</time>
      </trkpt>
      <trkpt lat="43.5408" lon="5.87579">
        <ele>454.94</ele>
        <time>2020-01-18T09:50:35Z</time>
      </trkpt>
      <trkpt lat="43.54087" lon="5.87554">
        <ele>453.95</ele>
        <time>2020-01-18T09:50:42Z</time>
      </trkpt>
      <trkpt lat="43.54089" lon="5.87525">
        <ele>453.6</ele>
        <time>2020-01-18T09:50:47Z</time>
      </trkpt>
      <trkpt lat="43.54098" lon="5.87498">
        <ele>452.99</ele>
        <time>2020-01-18T09:50:52Z</time>
      </trkpt>
      <trkpt lat="43.54103" lon="5.87468">
        <ele>452.97</ele>
        <time>2020-01-18T09:50:57Z</time>
      </trkpt>
      <trkpt lat="43.54106" lon="5.87443">
        <ele>452.51</ele>
        <time>2020-01-18T09:51:01Z</time>
      </trkpt>
      <trkpt lat="43.5411" lon="5.87413">
        <ele>451.6</ele>
        <time>2020-01-18T09:51:06Z</time>
      </trkpt>
      <trkpt lat="43.54109" lon="5.87387">
        <ele>450.58</ele>
        <time>2020-01-18T09:51:11Z</time>
      </trkpt>
      <trkpt lat="43.54091" lon="5.87369">
        <ele>450.09</ele>
        <time>2020-01-18T09:51:16Z</time>
      </trkpt>
      <trkpt lat="43.54072" lon="5.87353">
        <ele>448.75</ele>
        <time>2020-01-18T09:51:20Z</time>
      </trkpt>
      <trkpt lat="43.54053" lon="5.87335">
        <ele>447.7</ele>
        <time>2020-01-18T09:51:24Z</time>
      </trkpt>
      <trkpt lat="43.54033" lon="5.87322">
        <ele>445.65</ele>
        <time>2020-01-18T09:51:29Z</time>
      </trkpt>
      <trkpt lat="43.54015" lon="5.87309">
        <ele>443.84</ele>
        <time>2020-01-18T09:51:35Z</time>
      </trkpt>
      <trkpt lat="43.53995" lon="5.87315">
        <ele>442.7</ele>
        <time>2020-01-18T09:51:41Z</time>
      </trkpt>
      <trkpt lat="43.53979" lon="5.87332">
        <ele>442.67</ele>
        <time>2020-01-18T09:51:45Z</time>
      </trkpt>
      <trkpt lat="43.53963" lon="5.87347">
        <ele>442.67</ele>
        <time>2020-01-18T09:51:49Z</time>
      </trkpt>
      <trkpt lat="43.53946" lon="5.87359">
        <ele>443.22</ele>
        <time>2020-01-18T09:51:53Z</time>
      </trkpt>
      <trkpt lat="43.53925" lon="5.87364">
        <ele>444.31</ele>
        <time>2020-01-18T09:52:00Z</time>
      </trkpt>
      <trkpt lat="43.53907" lon="5.87365">
        <ele>445.9</ele>
        <time>2020-01-18T09:52:05Z</time>
      </trkpt>
      <trkpt lat="43.53889" lon="5.87365">
        <ele>446.74</ele>
        <time>2020-01-18T09:52:10Z</time>
      </trkpt>
      <trkpt lat="43.5387" lon="5.87363">
        <ele>447.94</ele>
        <time>2020-01-18T09:52:19Z</time>
      </trkpt>
      <trkpt lat="43.53858" lon="5.87345">
        <ele>450.95</ele>
        <time>2020-01-18T09:52:34Z</time>
      </trkpt>
      <trkpt lat="43.53847" lon="5.87321">
        <ele>451.7</ele>
        <time>2020-01-18T09:52:44Z</time>
      </trkpt>
      <trkpt lat="43.53831" lon="5.87307">
        <ele>451.99</ele>
        <time>2020-01-18T09:52:51Z</time>
      </trkpt>
      <trkpt lat="43.53813" lon="5.87299">
        <ele>452.07</ele>
        <time>2020-01-18T09:52:55Z</time>
      </trkpt>
      <trkpt lat="43.53796" lon="5.87285">
        <ele>452.52</ele>
        <time>2020-01-18T09:53:03Z</time>
      </trkpt>
      <trkpt lat="43.53774" lon="5.87277">
        <ele>451.49</ele>
        <time>2020-01-18T09:53:09Z</time>
      </trkpt>
      <trkpt lat="43.53754" lon="5.87273">
        <ele>450.7</ele>
        <time>2020-01-18T09:53:12Z</time>
      </trkpt>
      <trkpt lat="43.53725" lon="5.8727">
        <ele>450.71</ele>
        <time>2020-01-18T09:53:18Z</time>
      </trkpt>
      <trkpt lat="43.53707" lon="5.87268">
        <ele>451.47</ele>
        <time>2020-01-18T09:53:21Z</time>
      </trkpt>
      <trkpt lat="43.53688" lon="5.8727">
        <ele>452.62</ele>
        <time>2020-01-18T09:53:26Z</time>
      </trkpt>
      <trkpt lat="43.53669" lon="5.87274">
        <ele>453.26</ele>
        <time>2020-01-18T09:53:35Z</time>
      </trkpt>
      <trkpt lat="43.5365" lon="5.87281">
        <ele>454.52</ele>
        <time>2020-01-18T09:53:42Z</time>
      </trkpt>
      <trkpt lat="43.53631" lon="5.87287">
        <ele>454.17</ele>
        <time>2020-01-18T09:53:49Z</time>
      </trkpt>
      <trkpt lat="43.53612" lon="5.87284">
        <ele>452.23</ele>
        <time>2020-01-18T09:53:58Z</time>
      </trkpt>
      <trkpt lat="43.53591" lon="5.8728">
        <ele>452.52</ele>
        <time>2020-01-18T09:54:05Z</time>
      </trkpt>
      <trkpt lat="43.53571" lon="5.87279">
        <ele>453.15</ele>
        <time>2020-01-18T09:54:11Z</time>
      </trkpt>
      <trkpt lat="43.53553" lon="5.8727">
        <ele>454.22</ele>
        <time>2020-01-18T09:54:18Z</time>
      </trkpt>
      <trkpt lat="43.53542" lon="5.87246">
        <ele>455.89</ele>
        <time>2020-01-18T09:54:25Z</time>
      </trkpt>
      <trkpt lat="43.53542" lon="5.87216">
        <ele>457.51</ele>
        <time>2020-01-18T09:54:31Z</time>
      </trkpt>
      <trkpt lat="43.53538" lon="5.87188">
        <ele>457.86</ele>
        <time>2020-01-18T09:54:36Z</time>
      </trkpt>
      <trkpt lat="43.53531" lon="5.87161">
        <ele>457.89</ele>
        <time>2020-01-18T09:54:41Z</time>
      </trkpt>
      <trkpt lat="43.53525" lon="5.87134">
        <ele>457.68</ele>
        <time>2020-01-18T09:54:46Z</time>
      </trkpt>
      <trkpt lat="43.53502" lon="5.87129">
        <ele>456.96</ele>
        <time>2020-01-18T09:54:51Z</time>
      </trkpt>
      <trkpt lat="43.53482" lon="5.87119">
        <ele>456.39</ele>
        <time>2020-01-18T09:54:55Z</time>
      </trkpt>
      <trkpt lat="43.53462" lon="5.8711">
        <ele>455.82</ele>
        <time>2020-01-18T09:54:58Z</time>
      </trkpt>
      <trkpt lat="43.53444" lon="5.87107">
        <ele>455.23</ele>
        <time>2020-01-18T09:55:00Z</time>
      </trkpt>
      <trkpt lat="43.53424" lon="5.87105">
        <ele>454.23</ele>
        <time>2020-01-18T09:55:03Z</time>
      </trkpt>
      <trkpt lat="43.53402" lon="5.87107">
        <ele>453.62</ele>
        <time>2020-01-18T09:55:06Z</time>
      </trkpt>
      <trkpt lat="43.53379" lon="5.87111">
        <ele>453.19</ele>
        <time>2020-01-18T09:55:09Z</time>
      </trkpt>
      <trkpt lat="43.53357" lon="5.87114">
        <ele>452.9</ele>
        <time>2020-01-18T09:55:12Z</time>
      </trkpt>
      <trkpt lat="43.53333" lon="5.87117">
        <ele>452.87</ele>
        <time>2020-01-18T09:55:15Z</time>
      </trkpt>
      <trkpt lat="43.53312" lon="5.87119">
        <ele>452.79</ele>
        <time>2020-01-18T09:55:18Z</time>
      </trkpt>
      <trkpt lat="43.53288" lon="5.87123">
        <ele>453.11</ele>
        <time>2020-01-18T09:55:21Z</time>
      </trkpt>
      <trkpt lat="43.53269" lon="5.8713">
        <ele>453.62</ele>
        <time>2020-01-18T09:55:24Z</time>
      </trkpt>
      <trkpt lat="43.5325" lon="5.87146">
        <ele>454.14</ele>
        <time>2020-01-18T09:55:27Z</time>
      </trkpt>
      <trkpt lat="43.53231" lon="5.87163">
        <ele>454.21</ele>
        <time>2020-01-18T09:55:30Z</time>
      </trkpt>
      <trkpt lat="43.53215" lon="5.87183">
        <ele>453.17</ele>
        <time>2020-01-18T09:55:33Z</time>
      </trkpt>
      <trkpt lat="43.53196" lon="5.87202">
        <ele>453.07</ele>
        <time>2020-01-18T09:55:37Z</time>
      </trkpt>
      <trkpt lat="43.53179" lon="5.87219">
        <ele>452.87</ele>
        <time>2020-01-18T09:55:41Z</time>
      </trkpt>
      <trkpt lat="43.53167" lon="5.87238">
        <ele>451.92</ele>
        <time>2020-01-18T09:55:47Z</time>
      </trkpt>
      <trkpt lat="43.53153" lon="5.87256">
        <ele>451.17</ele>
        <time>2020-01-18T09:56:07Z</time>
      </trkpt>
      <trkpt lat="43.53147" lon="5.87279">
        <ele>447.15</ele>
        <time>2020-01-18T09:59:37Z</time>
      </trkpt>
      <trkpt lat="43.53158" lon="5.87302">
        <ele>443.12</ele>
        <time>2020-01-18T10:12:04Z</time>
      </trkpt>
      <trkpt lat="43.53165" lon="5.87328">
        <ele>444.27</ele>
        <time>2020-01-18T10:12:14Z</time>
      </trkpt>
      <trkpt lat="43.53165" lon="5.87353">
        <ele>445.23</ele>
        <time>2020-01-18T10:12:23Z</time>
      </trkpt>
      <trkpt lat="43.53154" lon="5.87374">
        <ele>443.86</ele>
        <time>2020-01-18T10:12:32Z</time>
      </trkpt>
      <trkpt lat="43.53141" lon="5.87393">
        <ele>442.69</ele>
        <time>2020-01-18T10:12:41Z</time>
      </trkpt>
      <trkpt lat="43.53141" lon="5.87421">
        <ele>442.75</ele>
        <time>2020-01-18T10:12:50Z</time>
      </trkpt>
      <trkpt lat="43.53146" lon="5.87448">
        <ele>443.32</ele>
        <time>2020-01-18T10:12:56Z</time>
      </trkpt>
      <trkpt lat="43.53162" lon="5.87463">
        <ele>443.46</ele>
        <time>2020-01-18T10:12:59Z</time>
      </trkpt>
      <trkpt lat="43.53176" lon="5.87487">
        <ele>444.04</ele>
        <time>2020-01-18T10:13:05Z</time>
      </trkpt>
      <trkpt lat="43.53192" lon="5.87503">
        <ele>443.99</ele>
        <time>2020-01-18T10:13:09Z</time>
      </trkpt>
      <trkpt lat="43.53205" lon="5.87527">
        <ele>444.62</ele>
        <time>2020-01-18T10:13:15Z</time>
      </trkpt>
      <trkpt lat="43.53215" lon="5.87554">
        <ele>446</ele>
        <time>2020-01-18T10:13:21Z</time>
      </trkpt>
      <trkpt lat="43.53229" lon="5.87572">
        <ele>446.84</ele>
        <time>2020-01-18T10:13:25Z</time>
      </trkpt>
      <trkpt lat="43.53238" lon="5.87594">
        <ele>447.55</ele>
        <time>2020-01-18T10:13:29Z</time>
      </trkpt>
      <trkpt lat="43.53253" lon="5.87612">
        <ele>447.57</ele>
        <time>2020-01-18T10:13:33Z</time>
      </trkpt>
      <trkpt lat="43.53263" lon="5.87635">
        <ele>447.88</ele>
        <time>2020-01-18T10:13:37Z</time>
      </trkpt>
      <trkpt lat="43.53273" lon="5.87658">
        <ele>448.7</ele>
        <time>2020-01-18T10:13:42Z</time>
      </trkpt>
      <trkpt lat="43.53287" lon="5.87684">
        <ele>450.21</ele>
        <time>2020-01-18T10:13:47Z</time>
      </trkpt>
      <trkpt lat="43.53302" lon="5.87706">
        <ele>451.73</ele>
        <time>2020-01-18T10:13:51Z</time>
      </trkpt>
      <trkpt lat="43.53321" lon="5.87724">
        <ele>451.44</ele>
        <time>2020-01-18T10:13:54Z</time>
      </trkpt>
      <trkpt lat="43.53334" lon="5.87743">
        <ele>451.4</ele>
        <time>2020-01-18T10:13:57Z</time>
      </trkpt>
      <trkpt lat="43.53348" lon="5.87761">
        <ele>452.47</ele>
        <time>2020-01-18T10:14:00Z</time>
      </trkpt>
      <trkpt lat="43.53357" lon="5.87791">
        <ele>453.67</ele>
        <time>2020-01-18T10:14:04Z</time>
      </trkpt>
      <trkpt lat="43.53357" lon="5.8782">
        <ele>453.38</ele>
        <time>2020-01-18T10:14:07Z</time>
      </trkpt>
      <trkpt lat="43.5336" lon="5.8785">
        <ele>452.32</ele>
        <time>2020-01-18T10:14:10Z</time>
      </trkpt>
      <trkpt lat="43.5336" lon="5.87879">
        <ele>451.34</ele>
        <time>2020-01-18T10:14:14Z</time>
      </trkpt>
      <trkpt lat="43.53355" lon="5.87909">
        <ele>452.51</ele>
        <time>2020-01-18T10:14:19Z</time>
      </trkpt>
      <trkpt lat="43.53351" lon="5.87933">
        <ele>454.07</ele>
        <time>2020-01-18T10:14:23Z</time>
      </trkpt>
      <trkpt lat="43.53348" lon="5.87958">
        <ele>455.78</ele>
        <time>2020-01-18T10:14:27Z</time>
      </trkpt>
      <trkpt lat="43.53347" lon="5.87984">
        <ele>457.56</ele>
        <time>2020-01-18T10:14:31Z</time>
      </trkpt>
      <trkpt lat="43.53348" lon="5.88014">
        <ele>458.57</ele>
        <time>2020-01-18T10:14:35Z</time>
      </trkpt>
      <trkpt lat="43.5335" lon="5.88041">
        <ele>458.7</ele>
        <time>2020-01-18T10:14:38Z</time>
      </trkpt>
      <trkpt lat="43.53354" lon="5.8807">
        <ele>457.68</ele>
        <time>2020-01-18T10:14:41Z</time>
      </trkpt>
      <trkpt lat="43.53347" lon="5.88096">
        <ele>456.43</ele>
        <time>2020-01-18T10:14:44Z</time>
      </trkpt>
      <trkpt lat="43.53341" lon="5.8812">
        <ele>456.94</ele>
        <time>2020-01-18T10:14:47Z</time>
      </trkpt>
      <trkpt lat="43.53338" lon="5.88146">
        <ele>457.74</ele>
        <time>2020-01-18T10:14:51Z</time>
      </trkpt>
      <trkpt lat="43.53338" lon="5.88175">
        <ele>458.83</ele>
        <time>2020-01-18T10:14:55Z</time>
      </trkpt>
      <trkpt lat="43.53331" lon="5.88207">
        <ele>459.45</ele>
        <time>2020-01-18T10:14:59Z</time>
      </trkpt>
      <trkpt lat="43.53321" lon="5.88237">
        <ele>460.77</ele>
        <time>2020-01-18T10:15:03Z</time>
      </trkpt>
      <trkpt lat="43.53317" lon="5.88262">
        <ele>461.94</ele>
        <time>2020-01-18T10:15:06Z</time>
      </trkpt>
      <trkpt lat="43.53312" lon="5.88286">
        <ele>463.42</ele>
        <time>2020-01-18T10:15:09Z</time>
      </trkpt>
      <trkpt lat="43.53309" lon="5.88317">
        <ele>465.54</ele>
        <time>2020-01-18T10:15:13Z</time>
      </trkpt>
      <trkpt lat="43.53309" lon="5.88346">
        <ele>467.1</ele>
        <time>2020-01-18T10:15:17Z</time>
      </trkpt>
      <trkpt lat="43.53304" lon="5.8837">
        <ele>468.02</ele>
        <time>2020-01-18T10:15:20Z</time>
      </trkpt>
      <trkpt lat="43.53294" lon="5.88393">
        <ele>469.81</ele>
        <time>2020-01-18T10:15:23Z</time>
      </trkpt>
      <trkpt lat="43.53282" lon="5.88413">
        <ele>471.36</ele>
        <time>2020-01-18T10:15:26Z</time>
      </trkpt>
      <trkpt lat="43.53269" lon="5.88435">
        <ele>472.92</ele>
        <time>2020-01-18T10:15:29Z</time>
      </trkpt>
      <trkpt lat="43.53258" lon="5.88456">
        <ele>474.62</ele>
        <time>2020-01-18T10:15:32Z</time>
      </trkpt>
      <trkpt lat="43.53263" lon="5.88487">
        <ele>468.64</ele>
        <time>2020-01-18T10:15:34Z</time>
      </trkpt>
      <trkpt lat="43.53251" lon="5.8851">
        <ele>466.18</ele>
        <time>2020-01-18T10:15:37Z</time>
      </trkpt>
      <trkpt lat="43.53246" lon="5.88538">
        <ele>467.57</ele>
        <time>2020-01-18T10:15:41Z</time>
      </trkpt>
      <trkpt lat="43.53251" lon="5.88566">
        <ele>468.62</ele>
        <time>2020-01-18T10:15:45Z</time>
      </trkpt>
      <trkpt lat="43.53243" lon="5.88589">
        <ele>470.91</ele>
        <time>2020-01-18T10:15:54Z</time>
      </trkpt>
      <trkpt lat="43.53239" lon="5.88623">
        <ele>471.14</ele>
        <time>2020-01-18T10:16:03Z</time>
      </trkpt>
      <trkpt lat="43.53234" lon="5.88649">
        <ele>464.39</ele>
        <time>2020-01-18T10:16:09Z</time>
      </trkpt>
      <trkpt lat="43.53224" lon="5.88671">
        <ele>456.58</ele>
        <time>2020-01-18T10:16:16Z</time>
      </trkpt>
      <trkpt lat="43.53211" lon="5.8869">
        <ele>447.5</ele>
        <time>2020-01-18T10:16:25Z</time>
      </trkpt>
      <trkpt lat="43.53208" lon="5.88717">
        <ele>439.4</ele>
        <time>2020-01-18T10:16:31Z</time>
      </trkpt>
      <trkpt lat="43.53219" lon="5.88741">
        <ele>431.7</ele>
        <time>2020-01-18T10:16:37Z</time>
      </trkpt>
      <trkpt lat="43.53235" lon="5.88754">
        <ele>429.15</ele>
        <time>2020-01-18T10:16:43Z</time>
      </trkpt>
      <trkpt lat="43.53252" lon="5.88772">
        <ele>425.43</ele>
        <time>2020-01-18T10:16:49Z</time>
      </trkpt>
      <trkpt lat="43.5327" lon="5.8879">
        <ele>419.28</ele>
        <time>2020-01-18T10:16:54Z</time>
      </trkpt>
      <trkpt lat="43.53288" lon="5.88802">
        <ele>417.38</ele>
        <time>2020-01-18T10:16:59Z</time>
      </trkpt>
      <trkpt lat="43.53304" lon="5.88821">
        <ele>415.4</ele>
        <time>2020-01-18T10:17:04Z</time>
      </trkpt>
      <trkpt lat="43.53315" lon="5.88844">
        <ele>411.63</ele>
        <time>2020-01-18T10:17:08Z</time>
      </trkpt>
      <trkpt lat="43.53323" lon="5.88869">
        <ele>408.58</ele>
        <time>2020-01-18T10:17:13Z</time>
      </trkpt>
      <trkpt lat="43.53325" lon="5.88894">
        <ele>406.01</ele>
        <time>2020-01-18T10:17:19Z</time>
      </trkpt>
      <trkpt lat="43.53325" lon="5.88923">
        <ele>400.78</ele>
        <time>2020-01-18T10:17:26Z</time>
      </trkpt>
      <trkpt lat="43.53324" lon="5.88949">
        <ele>397.07</ele>
        <time>2020-01-18T10:17:33Z</time>
      </trkpt>
      <trkpt lat="43.53311" lon="5.88971">
        <ele>393.07</ele>
        <time>2020-01-18T10:17:38Z</time>
      </trkpt>
      <trkpt lat="43.53305" lon="5.88994">
        <ele>389.92</ele>
        <time>2020-01-18T10:17:45Z</time>
      </trkpt>
      <trkpt lat="43.53291" lon="5.89011">
        <ele>382.59</ele>
        <time>2020-01-18T10:17:57Z</time>
      </trkpt>
      <trkpt lat="43.53273" lon="5.89005">
        <ele>371.67</ele>
        <time>2020-01-18T10:18:30Z</time>
      </trkpt>
      <trkpt lat="43.53254" lon="5.89012">
        <ele>372.34</ele>
        <time>2020-01-18T10:18:41Z</time>
      </trkpt>
      <trkpt lat="43.53236" lon="5.89019">
        <ele>372.53</ele>
        <time>2020-01-18T10:18:51Z</time>
      </trkpt>
      <trkpt lat="43.53222" lon="5.89037">
        <ele>373.93</ele>
        <time>2020-01-18T10:18:59Z</time>
      </trkpt>
      <trkpt lat="43.53208" lon="5.89059">
        <ele>375.4</ele>
        <time>2020-01-18T10:19:07Z</time>
      </trkpt>
      <trkpt lat="43.53193" lon="5.89074">
        <ele>377.17</ele>
        <time>2020-01-18T10:19:13Z</time>
      </trkpt>
      <trkpt lat="43.53182" lon="5.89094">
        <ele>378.02</ele>
        <time>2020-01-18T10:19:17Z</time>
      </trkpt>
      <trkpt lat="43.53165" lon="5.89109">
        <ele>379.29</ele>
        <time>2020-01-18T10:19:22Z</time>
      </trkpt>
      <trkpt lat="43.53146" lon="5.89118">
        <ele>380.34</ele>
        <time>2020-01-18T10:19:29Z</time>
      </trkpt>
      <trkpt lat="43.5313" lon="5.89131">
        <ele>381.82</ele>
        <time>2020-01-18T10:19:37Z</time>
      </trkpt>
      <trkpt lat="43.53115" lon="5.8915">
        <ele>384.97</ele>
        <time>2020-01-18T10:19:45Z</time>
      </trkpt>
      <trkpt lat="43.53097" lon="5.89163">
        <ele>387.47</ele>
        <time>2020-01-18T10:19:51Z</time>
      </trkpt>
      <trkpt lat="43.53079" lon="5.89184">
        <ele>383.35</ele>
        <time>2020-01-18T10:20:14Z</time>
      </trkpt>
      <trkpt lat="43.53063" lon="5.89198">
        <ele>366.69</ele>
        <time>2020-01-18T10:22:26Z</time>
      </trkpt>
      <trkpt lat="43.53043" lon="5.89206">
        <ele>367.06</ele>
        <time>2020-01-18T10:22:32Z</time>
      </trkpt>
      <trkpt lat="43.53024" lon="5.8922">
        <ele>366.68</ele>
        <time>2020-01-18T10:22:36Z</time>
      </trkpt>
      <trkpt lat="43.53003" lon="5.89237">
        <ele>365.47</ele>
        <time>2020-01-18T10:22:40Z</time>
      </trkpt>
      <trkpt lat="43.52989" lon="5.89258">
        <ele>363.95</ele>
        <time>2020-01-18T10:22:44Z</time>
      </trkpt>
      <trkpt lat="43.52978" lon="5.89279">
        <ele>362.14</ele>
        <time>2020-01-18T10:22:49Z</time>
      </trkpt>
      <trkpt lat="43.52959" lon="5.89292">
        <ele>360.6</ele>
        <time>2020-01-18T10:22:55Z</time>
      </trkpt>
      <trkpt lat="43.52941" lon="5.89301">
        <ele>360.41</ele>
        <time>2020-01-18T10:23:01Z</time>
      </trkpt>
      <trkpt lat="43.52923" lon="5.89318">
        <ele>361.88</ele>
        <time>2020-01-18T10:23:05Z</time>
      </trkpt>
      <trkpt lat="43.52908" lon="5.89331">
        <ele>362.88</ele>
        <time>2020-01-18T10:23:08Z</time>
      </trkpt>
      <trkpt lat="43.52888" lon="5.89344">
        <ele>363.44</ele>
        <time>2020-01-18T10:23:12Z</time>
      </trkpt>
      <trkpt lat="43.52871" lon="5.89352">
        <ele>363.02</ele>
        <time>2020-01-18T10:23:16Z</time>
      </trkpt>
      <trkpt lat="43.5285" lon="5.89361">
        <ele>362.65</ele>
        <time>2020-01-18T10:23:20Z</time>
      </trkpt>
      <trkpt lat="43.52829" lon="5.89376">
        <ele>363.14</ele>
        <time>2020-01-18T10:23:24Z</time>
      </trkpt>
      <trkpt lat="43.52817" lon="5.89396">
        <ele>361.63</ele>
        <time>2020-01-18T10:23:30Z</time>
      </trkpt>
      <trkpt lat="43.52814" lon="5.89421">
        <ele>359.16</ele>
        <time>2020-01-18T10:23:38Z</time>
      </trkpt>
      <trkpt lat="43.52816" lon="5.89448">
        <ele>357</ele>
        <time>2020-01-18T10:23:48Z</time>
      </trkpt>
      <trkpt lat="43.52827" lon="5.89472">
        <ele>355.01</ele>
        <time>2020-01-18T10:23:56Z</time>
      </trkpt>
      <trkpt lat="43.52828" lon="5.89498">
        <ele>352.52</ele>
        <time>2020-01-18T10:24:07Z</time>
      </trkpt>
      <trkpt lat="43.52825" lon="5.89524">
        <ele>343.4</ele>
        <time>2020-01-18T10:24:35Z</time>
      </trkpt>
      <trkpt lat="43.5281" lon="5.89539">
        <ele>343.06</ele>
        <time>2020-01-18T10:24:45Z</time>
      </trkpt>
      <trkpt lat="43.52792" lon="5.89551">
        <ele>343.29</ele>
        <time>2020-01-18T10:24:57Z</time>
      </trkpt>
      <trkpt lat="43.52774" lon="5.89557">
        <ele>344.48</ele>
        <time>2020-01-18T10:25:15Z</time>
      </trkpt>
      <trkpt lat="43.52756" lon="5.89548">
        <ele>345.92</ele>
        <time>2020-01-18T10:25:28Z</time>
      </trkpt>
      <trkpt lat="43.52738" lon="5.89542">
        <ele>347.42</ele>
        <time>2020-01-18T10:25:36Z</time>
      </trkpt>
      <trkpt lat="43.5272" lon="5.89541">
        <ele>349.2</ele>
        <time>2020-01-18T10:25:45Z</time>
      </trkpt>
      <trkpt lat="43.527" lon="5.89539">
        <ele>350.68</ele>
        <time>2020-01-18T10:25:50Z</time>
      </trkpt>
      <trkpt lat="43.52678" lon="5.89541">
        <ele>352.01</ele>
        <time>2020-01-18T10:25:55Z</time>
      </trkpt>
      <trkpt lat="43.52659" lon="5.89544">
        <ele>353.45</ele>
        <time>2020-01-18T10:26:01Z</time>
      </trkpt>
      <trkpt lat="43.52638" lon="5.89546">
        <ele>355.71</ele>
        <time>2020-01-18T10:26:09Z</time>
      </trkpt>
      <trkpt lat="43.52619" lon="5.89545">
        <ele>358.22</ele>
        <time>2020-01-18T10:26:14Z</time>
      </trkpt>
      <trkpt lat="43.52601" lon="5.89545">
        <ele>361.1</ele>
        <time>2020-01-18T10:26:20Z</time>
      </trkpt>
      <trkpt lat="43.52582" lon="5.89546">
        <ele>365.52</ele>
        <time>2020-01-18T10:26:27Z</time>
      </trkpt>
      <trkpt lat="43.52562" lon="5.89543">
        <ele>371.13</ele>
        <time>2020-01-18T10:26:35Z</time>
      </trkpt>
      <trkpt lat="43.52543" lon="5.89542">
        <ele>375.87</ele>
        <time>2020-01-18T10:26:42Z</time>
      </trkpt>
      <trkpt lat="43.52524" lon="5.89544">
        <ele>378.7</ele>
        <time>2020-01-18T10:26:47Z</time>
      </trkpt>
      <trkpt lat="43.52504" lon="5.89545">
        <ele>383.15</ele>
        <time>2020-01-18T10:26:54Z</time>
      </trkpt>
      <trkpt lat="43.52482" lon="5.89549">
        <ele>381.43</ele>
        <time>2020-01-18T10:26:58Z</time>
      </trkpt>
      <trkpt lat="43.52462" lon="5.89549">
        <ele>381.41</ele>
        <time>2020-01-18T10:27:03Z</time>
      </trkpt>
      <trkpt lat="43.52442" lon="5.89544">
        <ele>381.73</ele>
        <time>2020-01-18T10:27:09Z</time>
      </trkpt>
      <trkpt lat="43.52422" lon="5.8954">
        <ele>383.44</ele>
        <time>2020-01-18T10:27:15Z</time>
      </trkpt>
      <trkpt lat="43.52404" lon="5.89536">
        <ele>387.62</ele>
        <time>2020-01-18T10:27:22Z</time>
      </trkpt>
      <trkpt lat="43.52385" lon="5.89536">
        <ele>390.86</ele>
        <time>2020-01-18T10:27:29Z</time>
      </trkpt>
      <trkpt lat="43.52366" lon="5.89534">
        <ele>391.82</ele>
        <time>2020-01-18T10:27:36Z</time>
      </trkpt>
      <trkpt lat="43.52342" lon="5.89539">
        <ele>389.21</ele>
        <time>2020-01-18T10:27:40Z</time>
      </trkpt>
      <trkpt lat="43.5232" lon="5.89543">
        <ele>386.84</ele>
        <time>2020-01-18T10:27:44Z</time>
      </trkpt>
      <trkpt lat="43.52299" lon="5.89543">
        <ele>387.65</ele>
        <time>2020-01-18T10:27:49Z</time>
      </trkpt>
      <trkpt lat="43.52278" lon="5.89543">
        <ele>390.57</ele>
        <time>2020-01-18T10:27:54Z</time>
      </trkpt>
      <trkpt lat="43.52259" lon="5.89546">
        <ele>394.25</ele>
        <time>2020-01-18T10:27:59Z</time>
      </trkpt>
      <trkpt lat="43.5224" lon="5.89552">
        <ele>396.85</ele>
        <time>2020-01-18T10:28:04Z</time>
      </trkpt>
      <trkpt lat="43.52221" lon="5.89556">
        <ele>400.18</ele>
        <time>2020-01-18T10:28:09Z</time>
      </trkpt>
      <trkpt lat="43.52203" lon="5.8956">
        <ele>400.51</ele>
        <time>2020-01-18T10:28:12Z</time>
      </trkpt>
      <trkpt lat="43.52184" lon="5.89568">
        <ele>401.71</ele>
        <time>2020-01-18T10:28:18Z</time>
      </trkpt>
      <trkpt lat="43.52165" lon="5.89579">
        <ele>402.54</ele>
        <time>2020-01-18T10:28:24Z</time>
      </trkpt>
      <trkpt lat="43.52143" lon="5.89587">
        <ele>403.04</ele>
        <time>2020-01-18T10:28:30Z</time>
      </trkpt>
      <trkpt lat="43.52125" lon="5.89592">
        <ele>403.56</ele>
        <time>2020-01-18T10:28:34Z</time>
      </trkpt>
      <trkpt lat="43.52108" lon="5.89601">
        <ele>402.83</ele>
        <time>2020-01-18T10:28:39Z</time>
      </trkpt>
      <trkpt lat="43.5209" lon="5.89607">
        <ele>403.12</ele>
        <time>2020-01-18T10:28:43Z</time>
      </trkpt>
      <trkpt lat="43.52071" lon="5.89614">
        <ele>402.77</ele>
        <time>2020-01-18T10:28:47Z</time>
      </trkpt>
      <trkpt lat="43.52051" lon="5.89619">
        <ele>402.45</ele>
        <time>2020-01-18T10:28:51Z</time>
      </trkpt>
      <trkpt lat="43.52032" lon="5.89629">
        <ele>401.56</ele>
        <time>2020-01-18T10:28:57Z</time>
      </trkpt>
      <trkpt lat="43.52013" lon="5.89641">
        <ele>401.59</ele>
        <time>2020-01-18T10:29:04Z</time>
      </trkpt>
      <trkpt lat="43.51993" lon="5.89648">
        <ele>400.63</ele>
        <time>2020-01-18T10:29:08Z</time>
      </trkpt>
      <trkpt lat="43.51973" lon="5.89658">
        <ele>399.02</ele>
        <time>2020-01-18T10:29:14Z</time>
      </trkpt>
      <trkpt lat="43.51953" lon="5.89666">
        <ele>396.26</ele>
        <time>2020-01-18T10:29:19Z</time>
      </trkpt>
      <trkpt lat="43.51932" lon="5.89671">
        <ele>393.61</ele>
        <time>2020-01-18T10:29:23Z</time>
      </trkpt>
      <trkpt lat="43.51913" lon="5.89677">
        <ele>390.8</ele>
        <time>2020-01-18T10:29:28Z</time>
      </trkpt>
      <trkpt lat="43.51893" lon="5.89681">
        <ele>388.46</ele>
        <time>2020-01-18T10:29:33Z</time>
      </trkpt>
      <trkpt lat="43.51871" lon="5.89687">
        <ele>385.29</ele>
        <time>2020-01-18T10:29:39Z</time>
      </trkpt>
      <trkpt lat="43.51851" lon="5.89691">
        <ele>382.17</ele>
        <time>2020-01-18T10:29:44Z</time>
      </trkpt>
      <trkpt lat="43.51831" lon="5.89693">
        <ele>378.7</ele>
        <time>2020-01-18T10:29:50Z</time>
      </trkpt>
      <trkpt lat="43.51812" lon="5.89695">
        <ele>375.08</ele>
        <time>2020-01-18T10:29:56Z</time>
      </trkpt>
      <trkpt lat="43.51792" lon="5.89695">
        <ele>370.28</ele>
        <time>2020-01-18T10:30:02Z</time>
      </trkpt>
      <trkpt lat="43.51771" lon="5.8969">
        <ele>365.35</ele>
        <time>2020-01-18T10:30:08Z</time>
      </trkpt>
      <trkpt lat="43.5175" lon="5.89684">
        <ele>361.02</ele>
        <time>2020-01-18T10:30:14Z</time>
      </trkpt>
      <trkpt lat="43.51731" lon="5.89676">
        <ele>358.33</ele>
        <time>2020-01-18T10:30:19Z</time>
      </trkpt>
      <trkpt lat="43.51712" lon="5.89671">
        <ele>357.09</ele>
        <time>2020-01-18T10:30:25Z</time>
      </trkpt>
      <trkpt lat="43.51695" lon="5.89665">
        <ele>359.25</ele>
        <time>2020-01-18T10:30:32Z</time>
      </trkpt>
      <trkpt lat="43.51674" lon="5.89658">
        <ele>359.86</ele>
        <time>2020-01-18T10:30:39Z</time>
      </trkpt>
      <trkpt lat="43.51654" lon="5.89654">
        <ele>360.76</ele>
        <time>2020-01-18T10:30:45Z</time>
      </trkpt>
      <trkpt lat="43.51634" lon="5.89649">
        <ele>361.68</ele>
        <time>2020-01-18T10:30:51Z</time>
      </trkpt>
      <trkpt lat="43.51616" lon="5.89646">
        <ele>360.36</ele>
        <time>2020-01-18T10:30:55Z</time>
      </trkpt>
      <trkpt lat="43.51599" lon="5.89635">
        <ele>359.21</ele>
        <time>2020-01-18T10:31:00Z</time>
      </trkpt>
      <trkpt lat="43.51597" lon="5.89609">
        <ele>360.59</ele>
        <time>2020-01-18T10:31:07Z</time>
      </trkpt>
      <trkpt lat="43.51585" lon="5.89587">
        <ele>362.52</ele>
        <time>2020-01-18T10:31:14Z</time>
      </trkpt>
      <trkpt lat="43.51573" lon="5.89563">
        <ele>364.83</ele>
        <time>2020-01-18T10:31:22Z</time>
      </trkpt>
      <trkpt lat="43.51557" lon="5.89547">
        <ele>366.42</ele>
        <time>2020-01-18T10:31:30Z</time>
      </trkpt>
      <trkpt lat="43.51541" lon="5.89536">
        <ele>368.08</ele>
        <time>2020-01-18T10:31:38Z</time>
      </trkpt>
      <trkpt lat="43.51521" lon="5.89525">
        <ele>368.88</ele>
        <time>2020-01-18T10:31:45Z</time>
      </trkpt>
      <trkpt lat="43.51503" lon="5.89517">
        <ele>368.88</ele>
        <time>2020-01-18T10:31:51Z</time>
      </trkpt>
      <trkpt lat="43.51485" lon="5.89507">
        <ele>369.53</ele>
        <time>2020-01-18T10:31:59Z</time>
      </trkpt>
      <trkpt lat="43.51465" lon="5.895">
        <ele>369.03</ele>
        <time>2020-01-18T10:32:06Z</time>
      </trkpt>
      <trkpt lat="43.51446" lon="5.89489">
        <ele>369.02</ele>
        <time>2020-01-18T10:32:14Z</time>
      </trkpt>
      <trkpt lat="43.51427" lon="5.8948">
        <ele>369.03</ele>
        <time>2020-01-18T10:32:22Z</time>
      </trkpt>
      <trkpt lat="43.51412" lon="5.89461">
        <ele>369.76</ele>
        <time>2020-01-18T10:32:32Z</time>
      </trkpt>
      <trkpt lat="43.51396" lon="5.89449">
        <ele>370.8</ele>
        <time>2020-01-18T10:32:39Z</time>
      </trkpt>
      <trkpt lat="43.51377" lon="5.89438">
        <ele>373.16</ele>
        <time>2020-01-18T10:32:47Z</time>
      </trkpt>
      <trkpt lat="43.51358" lon="5.89434">
        <ele>376.71</ele>
        <time>2020-01-18T10:32:54Z</time>
      </trkpt>
      <trkpt lat="43.51338" lon="5.8943">
        <ele>381.62</ele>
        <time>2020-01-18T10:33:03Z</time>
      </trkpt>
      <trkpt lat="43.51319" lon="5.89421">
        <ele>385.86</ele>
        <time>2020-01-18T10:33:12Z</time>
      </trkpt>
      <trkpt lat="43.51302" lon="5.89412">
        <ele>386.34</ele>
        <time>2020-01-18T10:33:19Z</time>
      </trkpt>
      <trkpt lat="43.51284" lon="5.89399">
        <ele>385.09</ele>
        <time>2020-01-18T10:33:24Z</time>
      </trkpt>
      <trkpt lat="43.51268" lon="5.89381">
        <ele>384.81</ele>
        <time>2020-01-18T10:33:29Z</time>
      </trkpt>
      <trkpt lat="43.51253" lon="5.89364">
        <ele>384.3</ele>
        <time>2020-01-18T10:33:34Z</time>
      </trkpt>
      <trkpt lat="43.51235" lon="5.89345">
        <ele>383.36</ele>
        <time>2020-01-18T10:33:39Z</time>
      </trkpt>
      <trkpt lat="43.5122" lon="5.89327">
        <ele>382.65</ele>
        <time>2020-01-18T10:33:43Z</time>
      </trkpt>
      <trkpt lat="43.51204" lon="5.89313">
        <ele>382.17</ele>
        <time>2020-01-18T10:33:47Z</time>
      </trkpt>
      <trkpt lat="43.51185" lon="5.89308">
        <ele>381.37</ele>
        <time>2020-01-18T10:33:51Z</time>
      </trkpt>
      <trkpt lat="43.51165" lon="5.89299">
        <ele>381.72</ele>
        <time>2020-01-18T10:33:56Z</time>
      </trkpt>
      <trkpt lat="43.51145" lon="5.89288">
        <ele>381.97</ele>
        <time>2020-01-18T10:34:01Z</time>
      </trkpt>
      <trkpt lat="43.51125" lon="5.89281">
        <ele>382.62</ele>
        <time>2020-01-18T10:34:07Z</time>
      </trkpt>
      <trkpt lat="43.51104" lon="5.8929">
        <ele>376.51</ele>
        <time>2020-01-18T10:34:18Z</time>
      </trkpt>
      <trkpt lat="43.51087" lon="5.89281">
        <ele>369.02</ele>
        <time>2020-01-18T10:34:37Z</time>
      </trkpt>
      <trkpt lat="43.51065" lon="5.89279">
        <ele>367.45</ele>
        <time>2020-01-18T10:34:49Z</time>
      </trkpt>
      <trkpt lat="43.51045" lon="5.89273">
        <ele>366.36</ele>
        <time>2020-01-18T10:34:58Z</time>
      </trkpt>
      <trkpt lat="43.51025" lon="5.89263">
        <ele>366.64</ele>
        <time>2020-01-18T10:35:04Z</time>
      </trkpt>
      <trkpt lat="43.51007" lon="5.89253">
        <ele>367.44</ele>
        <time>2020-01-18T10:35:10Z</time>
      </trkpt>
      <trkpt lat="43.5099" lon="5.89243">
        <ele>368.9</ele>
        <time>2020-01-18T10:35:16Z</time>
      </trkpt>
      <trkpt lat="43.50971" lon="5.8923">
        <ele>370.4</ele>
        <time>2020-01-18T10:35:22Z</time>
      </trkpt>
      <trkpt lat="43.50956" lon="5.89217">
        <ele>372.07</ele>
        <time>2020-01-18T10:35:27Z</time>
      </trkpt>
      <trkpt lat="43.50938" lon="5.89205">
        <ele>374.25</ele>
        <time>2020-01-18T10:35:32Z</time>
      </trkpt>
      <trkpt lat="43.5092" lon="5.89191">
        <ele>376.04</ele>
        <time>2020-01-18T10:35:36Z</time>
      </trkpt>
      <trkpt lat="43.50898" lon="5.8919">
        <ele>376.17</ele>
        <time>2020-01-18T10:35:40Z</time>
      </trkpt>
      <trkpt lat="43.50878" lon="5.89193">
        <ele>373.88</ele>
        <time>2020-01-18T10:35:43Z</time>
      </trkpt>
      <trkpt lat="43.5086" lon="5.89181">
        <ele>371.71</ele>
        <time>2020-01-18T10:35:48Z</time>
      </trkpt>
      <trkpt lat="43.50838" lon="5.89174">
        <ele>366.35</ele>
        <time>2020-01-18T10:35:52Z</time>
      </trkpt>
      <trkpt lat="43.50825" lon="5.89156">
        <ele>363.32</ele>
        <time>2020-01-18T10:35:56Z</time>
      </trkpt>
      <trkpt lat="43.50811" lon="5.89136">
        <ele>359.5</ele>
        <time>2020-01-18T10:36:02Z</time>
      </trkpt>
      <trkpt lat="43.5079" lon="5.89124">
        <ele>355.97</ele>
        <time>2020-01-18T10:36:07Z</time>
      </trkpt>
      <trkpt lat="43.50772" lon="5.89114">
        <ele>352.99</ele>
        <time>2020-01-18T10:36:12Z</time>
      </trkpt>
      <trkpt lat="43.5075" lon="5.89114">
        <ele>350.68</ele>
        <time>2020-01-18T10:36:17Z</time>
      </trkpt>
      <trkpt lat="43.50731" lon="5.89118">
        <ele>348.72</ele>
        <time>2020-01-18T10:36:22Z</time>
      </trkpt>
      <trkpt lat="43.50711" lon="5.89117">
        <ele>345.18</ele>
        <time>2020-01-18T10:36:26Z</time>
      </trkpt>
      <trkpt lat="43.50689" lon="5.89114">
        <ele>338.96</ele>
        <time>2020-01-18T10:36:36Z</time>
      </trkpt>
      <trkpt lat="43.50669" lon="5.89108">
        <ele>332.29</ele>
        <time>2020-01-18T10:36:41Z</time>
      </trkpt>
      <trkpt lat="43.50648" lon="5.89101">
        <ele>324.59</ele>
        <time>2020-01-18T10:36:47Z</time>
      </trkpt>
      <trkpt lat="43.50631" lon="5.89092">
        <ele>320.61</ele>
        <time>2020-01-18T10:36:53Z</time>
      </trkpt>
      <trkpt lat="43.50612" lon="5.89085">
        <ele>316.04</ele>
        <time>2020-01-18T10:36:59Z</time>
      </trkpt>
      <trkpt lat="43.50593" lon="5.89074">
        <ele>311.35</ele>
        <time>2020-01-18T10:37:07Z</time>
      </trkpt>
      <trkpt lat="43.50572" lon="5.89062">
        <ele>306.74</ele>
        <time>2020-01-18T10:37:12Z</time>
      </trkpt>
      <trkpt lat="43.50557" lon="5.89042">
        <ele>302.44</ele>
        <time>2020-01-18T10:37:18Z</time>
      </trkpt>
      <trkpt lat="43.50543" lon="5.89022">
        <ele>298.14</ele>
        <time>2020-01-18T10:37:25Z</time>
      </trkpt>
      <trkpt lat="43.50534" lon="5.88999">
        <ele>294.88</ele>
        <time>2020-01-18T10:37:31Z</time>
      </trkpt>
      <trkpt lat="43.5052" lon="5.88979">
        <ele>292.59</ele>
        <time>2020-01-18T10:37:36Z</time>
      </trkpt>
      <trkpt lat="43.50504" lon="5.88967">
        <ele>290.42</ele>
        <time>2020-01-18T10:37:40Z</time>
      </trkpt>
      <trkpt lat="43.50488" lon="5.88954">
        <ele>287.47</ele>
        <time>2020-01-18T10:37:46Z</time>
      </trkpt>
      <trkpt lat="43.50469" lon="5.88941">
        <ele>284.28</ele>
        <time>2020-01-18T10:37:51Z</time>
      </trkpt>
      <trkpt lat="43.50453" lon="5.88928">
        <ele>282.61</ele>
        <time>2020-01-18T10:37:55Z</time>
      </trkpt>
      <trkpt lat="43.50438" lon="5.88909">
        <ele>280.77</ele>
        <time>2020-01-18T10:37:59Z</time>
      </trkpt>
      <trkpt lat="43.50425" lon="5.88888">
        <ele>278.97</ele>
        <time>2020-01-18T10:38:03Z</time>
      </trkpt>
      <trkpt lat="43.50413" lon="5.88866">
        <ele>277.58</ele>
        <time>2020-01-18T10:38:07Z</time>
      </trkpt>
      <trkpt lat="43.50399" lon="5.88847">
        <ele>276.07</ele>
        <time>2020-01-18T10:38:11Z</time>
      </trkpt>
      <trkpt lat="43.50389" lon="5.88823">
        <ele>274.65</ele>
        <time>2020-01-18T10:38:15Z</time>
      </trkpt>
      <trkpt lat="43.50383" lon="5.88798">
        <ele>272.64</ele>
        <time>2020-01-18T10:38:22Z</time>
      </trkpt>
      <trkpt lat="43.50382" lon="5.8877">
        <ele>270.62</ele>
        <time>2020-01-18T10:38:32Z</time>
      </trkpt>
      <trkpt lat="43.50377" lon="5.88746">
        <ele>268.73</ele>
        <time>2020-01-18T10:38:38Z</time>
      </trkpt>
      <trkpt lat="43.50373" lon="5.88721">
        <ele>266.52</ele>
        <time>2020-01-18T10:38:44Z</time>
      </trkpt>
      <trkpt lat="43.50371" lon="5.88704">
        <ele>309.3</ele>
      </trkpt>
      <trkpt lat="43.50378" lon="5.88696">
        <ele>309.7</ele>
      </trkpt>
      <trkpt lat="43.50369" lon="5.88679">
        <ele>309.1</ele>
      </trkpt>
      <trkpt lat="43.50364" lon="5.88659">
        <ele>256.66</ele>
        <time>2020-01-18T10:41:25Z</time>
      </trkpt>
      <trkpt lat="43.50369" lon="5.88655">
        <ele>310.8</ele>
      </trkpt>
    </trkseg>
  </trk>
</gpx>